<?xml version="1.0" encoding="UTF-8" standalone="no" ?>
<gpx xmlns="http://www.topografix.com/GPX/1/1" xmlns:xsi="http://www.w3.org/2001/XMLSchema-instance" xsi:schemaLocation="http://www.topografix.com/GPX/1/1 http://www.topografix.com/GPX/1/1/gpx.xsd" version="1.1" creator="VisuGPX - https://www.visugpx.com">
  <metadata>
    <name>Tête nord des fours - roselend</name>
  </metadata>
  <trk>
    <name><![CDATA[Tête nord des fours - roselend_1]]></name>
    <extensions>
      <line xmlns="http://www.topografix.com/GPX/gpx_style/0/2">
        <color>0000FF</color>
        <width>4</width>
      </line>
    </extensions>
    <trkseg>
      <trkpt lat="45.69478" lon="6.63348">
        <ele>1619</ele>
        <time>2014-07-27T06:37:54Z</time>
      </trkpt>
      <trkpt lat="45.6949" lon="6.63388">
        <ele>1620</ele>
        <time>2014-07-27T06:38:04Z</time>
      </trkpt>
      <trkpt lat="45.69495" lon="6.63425">
        <ele>1621</ele>
        <time>2014-07-27T06:38:12Z</time>
      </trkpt>
      <trkpt lat="45.69504" lon="6.63465">
        <ele>1622</ele>
        <time>2014-07-27T06:38:21Z</time>
      </trkpt>
      <trkpt lat="45.69517" lon="6.63505">
        <ele>1622</ele>
        <time>2014-07-27T06:38:28Z</time>
      </trkpt>
      <trkpt lat="45.69534" lon="6.6354">
        <ele>1621</ele>
        <time>2014-07-27T06:38:34Z</time>
      </trkpt>
      <trkpt lat="45.6954" lon="6.63551">
        <ele>1621</ele>
        <time>2014-07-27T06:38:36Z</time>
      </trkpt>
      <trkpt lat="45.6957" lon="6.63603">
        <ele>1619</ele>
        <time>2014-07-27T06:38:44Z</time>
      </trkpt>
      <trkpt lat="45.69594" lon="6.63633">
        <ele>1616.9</ele>
        <time>2014-07-27T06:38:49Z</time>
      </trkpt>
      <trkpt lat="45.69626" lon="6.63661">
        <ele>1615</ele>
        <time>2014-07-27T06:38:55Z</time>
      </trkpt>
      <trkpt lat="45.6965" lon="6.63693">
        <ele>1615</ele>
        <time>2014-07-27T06:39:01Z</time>
      </trkpt>
      <trkpt lat="45.69665" lon="6.63725">
        <ele>1615</ele>
        <time>2014-07-27T06:39:07Z</time>
      </trkpt>
      <trkpt lat="45.69686" lon="6.63764">
        <ele>1616</ele>
        <time>2014-07-27T06:39:16Z</time>
      </trkpt>
      <trkpt lat="45.69714" lon="6.63795">
        <ele>1617</ele>
        <time>2014-07-27T06:39:25Z</time>
      </trkpt>
      <trkpt lat="45.69736" lon="6.63811">
        <ele>1617</ele>
        <time>2014-07-27T06:39:31Z</time>
      </trkpt>
      <trkpt lat="45.6977" lon="6.63831">
        <ele>1617</ele>
        <time>2014-07-27T06:39:40Z</time>
      </trkpt>
      <trkpt lat="45.69801" lon="6.63853">
        <ele>1617.7</ele>
        <time>2014-07-27T06:39:49Z</time>
      </trkpt>
      <trkpt lat="45.69818" lon="6.63874">
        <ele>1618</ele>
        <time>2014-07-27T06:39:56Z</time>
      </trkpt>
      <trkpt lat="45.69846" lon="6.63912">
        <ele>1619</ele>
        <time>2014-07-27T06:40:07Z</time>
      </trkpt>
      <trkpt lat="45.69872" lon="6.63947">
        <ele>1620</ele>
        <time>2014-07-27T06:40:17Z</time>
      </trkpt>
      <trkpt lat="45.69895" lon="6.63977">
        <ele>1620</ele>
        <time>2014-07-27T06:40:25Z</time>
      </trkpt>
      <trkpt lat="45.69912" lon="6.64">
        <ele>1621</ele>
        <time>2014-07-27T06:40:31Z</time>
      </trkpt>
      <trkpt lat="45.69939" lon="6.64038">
        <ele>1621</ele>
        <time>2014-07-27T06:40:40Z</time>
      </trkpt>
      <trkpt lat="45.69959" lon="6.64073">
        <ele>1621</ele>
        <time>2014-07-27T06:40:47Z</time>
      </trkpt>
      <trkpt lat="45.69987" lon="6.64129">
        <ele>1620</ele>
        <time>2014-07-27T06:40:58Z</time>
      </trkpt>
      <trkpt lat="45.70008" lon="6.64185">
        <ele>1622</ele>
        <time>2014-07-27T06:41:10Z</time>
      </trkpt>
      <trkpt lat="45.70024" lon="6.64226">
        <ele>1622</ele>
        <time>2014-07-27T06:41:18Z</time>
      </trkpt>
      <trkpt lat="45.70029" lon="6.64244">
        <ele>1622</ele>
        <time>2014-07-27T06:41:21Z</time>
      </trkpt>
      <trkpt lat="45.70039" lon="6.64307">
        <ele>1622</ele>
        <time>2014-07-27T06:41:31Z</time>
      </trkpt>
      <trkpt lat="45.70048" lon="6.6434">
        <ele>1622</ele>
        <time>2014-07-27T06:41:37Z</time>
      </trkpt>
      <trkpt lat="45.70061" lon="6.64364">
        <ele>1622</ele>
        <time>2014-07-27T06:41:43Z</time>
      </trkpt>
      <trkpt lat="45.70075" lon="6.64379">
        <ele>1622</ele>
        <time>2014-07-27T06:41:48Z</time>
      </trkpt>
      <trkpt lat="45.70084" lon="6.64391">
        <ele>1622</ele>
        <time>2014-07-27T06:42:38Z</time>
      </trkpt>
      <trkpt lat="45.70102" lon="6.64417">
        <ele>1626</ele>
        <time>2014-07-27T06:42:56Z</time>
      </trkpt>
      <trkpt lat="45.70107" lon="6.64449">
        <ele>1630</ele>
        <time>2014-07-27T06:43:12Z</time>
      </trkpt>
      <trkpt lat="45.70096" lon="6.64473">
        <ele>1631</ele>
        <time>2014-07-27T06:43:25Z</time>
      </trkpt>
      <trkpt lat="45.70099" lon="6.64511">
        <ele>1634</ele>
        <time>2014-07-27T06:43:44Z</time>
      </trkpt>
      <trkpt lat="45.70097" lon="6.64531">
        <ele>1636</ele>
        <time>2014-07-27T06:43:54Z</time>
      </trkpt>
      <trkpt lat="45.70096" lon="6.64575">
        <ele>1639</ele>
        <time>2014-07-27T06:44:15Z</time>
      </trkpt>
      <trkpt lat="45.70082" lon="6.64611">
        <ele>1643</ele>
        <time>2014-07-27T06:44:33Z</time>
      </trkpt>
      <trkpt lat="45.70092" lon="6.64649">
        <ele>1646</ele>
        <time>2014-07-27T06:44:53Z</time>
      </trkpt>
      <trkpt lat="45.70115" lon="6.64656">
        <ele>1650.4</ele>
        <time>2014-07-27T06:45:09Z</time>
      </trkpt>
      <trkpt lat="45.70122" lon="6.6468">
        <ele>1652</ele>
        <time>2014-07-27T06:45:23Z</time>
      </trkpt>
      <trkpt lat="45.70119" lon="6.6472">
        <ele>1656</ele>
        <time>2014-07-27T06:45:43Z</time>
      </trkpt>
      <trkpt lat="45.70132" lon="6.64735">
        <ele>1658</ele>
        <time>2014-07-27T06:45:55Z</time>
      </trkpt>
      <trkpt lat="45.7016" lon="6.64735">
        <ele>1662</ele>
        <time>2014-07-27T06:46:15Z</time>
      </trkpt>
      <trkpt lat="45.70174" lon="6.64768">
        <ele>1666</ele>
        <time>2014-07-27T06:46:33Z</time>
      </trkpt>
      <trkpt lat="45.70181" lon="6.6478">
        <ele>1668</ele>
        <time>2014-07-27T06:46:41Z</time>
      </trkpt>
      <trkpt lat="45.70196" lon="6.64816">
        <ele>1673</ele>
        <time>2014-07-27T06:47:01Z</time>
      </trkpt>
      <trkpt lat="45.7021" lon="6.64839">
        <ele>1674</ele>
        <time>2014-07-27T06:47:15Z</time>
      </trkpt>
      <trkpt lat="45.70233" lon="6.64866">
        <ele>1677</ele>
        <time>2014-07-27T06:47:31Z</time>
      </trkpt>
      <trkpt lat="45.70251" lon="6.64887">
        <ele>1679</ele>
        <time>2014-07-27T06:47:43Z</time>
      </trkpt>
      <trkpt lat="45.70269" lon="6.64912">
        <ele>1681</ele>
        <time>2014-07-27T06:47:55Z</time>
      </trkpt>
      <trkpt lat="45.70277" lon="6.64927">
        <ele>1682</ele>
        <time>2014-07-27T06:48:01Z</time>
      </trkpt>
      <trkpt lat="45.70299" lon="6.64955">
        <ele>1686.1</ele>
        <time>2014-07-27T06:48:19Z</time>
      </trkpt>
      <trkpt lat="45.70313" lon="6.64993">
        <ele>1693</ele>
        <time>2014-07-27T06:48:38Z</time>
      </trkpt>
      <trkpt lat="45.70327" lon="6.65026">
        <ele>1696</ele>
        <time>2014-07-27T06:48:56Z</time>
      </trkpt>
      <trkpt lat="45.70331" lon="6.65048">
        <ele>1698</ele>
        <time>2014-07-27T06:49:07Z</time>
      </trkpt>
      <trkpt lat="45.70321" lon="6.65074">
        <ele>1702</ele>
        <time>2014-07-27T06:49:22Z</time>
      </trkpt>
      <trkpt lat="45.70296" lon="6.65087">
        <ele>1706</ele>
        <time>2014-07-27T06:49:41Z</time>
      </trkpt>
      <trkpt lat="45.70268" lon="6.6509">
        <ele>1710</ele>
        <time>2014-07-27T06:50:03Z</time>
      </trkpt>
      <trkpt lat="45.70256" lon="6.6511">
        <ele>1712</ele>
        <time>2014-07-27T06:50:20Z</time>
      </trkpt>
      <trkpt lat="45.70255" lon="6.65133">
        <ele>1713</ele>
        <time>2014-07-27T06:50:33Z</time>
      </trkpt>
      <trkpt lat="45.70259" lon="6.65169">
        <ele>1716</ele>
        <time>2014-07-27T06:50:53Z</time>
      </trkpt>
      <trkpt lat="45.70266" lon="6.6519">
        <ele>1718</ele>
        <time>2014-07-27T06:51:06Z</time>
      </trkpt>
      <trkpt lat="45.70278" lon="6.65205">
        <ele>1720</ele>
        <time>2014-07-27T06:51:18Z</time>
      </trkpt>
      <trkpt lat="45.70303" lon="6.65235">
        <ele>1725</ele>
        <time>2014-07-27T06:51:45Z</time>
      </trkpt>
      <trkpt lat="45.70313" lon="6.65253">
        <ele>1727</ele>
        <time>2014-07-27T06:51:58Z</time>
      </trkpt>
      <trkpt lat="45.70316" lon="6.65297">
        <ele>1731</ele>
        <time>2014-07-27T06:52:22Z</time>
      </trkpt>
      <trkpt lat="45.70331" lon="6.6529">
        <ele>1734</ele>
        <time>2014-07-27T06:52:38Z</time>
      </trkpt>
      <trkpt lat="45.70331" lon="6.65255">
        <ele>1736</ele>
        <time>2014-07-27T06:52:55Z</time>
      </trkpt>
      <trkpt lat="45.70339" lon="6.65251">
        <ele>1738</ele>
        <time>2014-07-27T06:53:07Z</time>
      </trkpt>
      <trkpt lat="45.70341" lon="6.65275">
        <ele>1740</ele>
        <time>2014-07-27T06:53:20Z</time>
      </trkpt>
      <trkpt lat="45.70352" lon="6.65291">
        <ele>1742</ele>
        <time>2014-07-27T06:53:30Z</time>
      </trkpt>
      <trkpt lat="45.70372" lon="6.65311">
        <ele>1746</ele>
        <time>2014-07-27T06:53:50Z</time>
      </trkpt>
      <trkpt lat="45.70364" lon="6.65281">
        <ele>1748</ele>
        <time>2014-07-27T06:54:06Z</time>
      </trkpt>
      <trkpt lat="45.70379" lon="6.65249">
        <ele>1750</ele>
        <time>2014-07-27T06:54:27Z</time>
      </trkpt>
      <trkpt lat="45.70399" lon="6.65253">
        <ele>1753</ele>
        <time>2014-07-27T06:54:43Z</time>
      </trkpt>
      <trkpt lat="45.70416" lon="6.65269">
        <ele>1754</ele>
        <time>2014-07-27T06:54:57Z</time>
      </trkpt>
      <trkpt lat="45.70433" lon="6.65248">
        <ele>1758</ele>
        <time>2014-07-27T06:55:12Z</time>
      </trkpt>
      <trkpt lat="45.70443" lon="6.65235">
        <ele>1761</ele>
        <time>2014-07-27T06:55:21Z</time>
      </trkpt>
      <trkpt lat="45.70456" lon="6.65217">
        <ele>1762</ele>
        <time>2014-07-27T06:55:33Z</time>
      </trkpt>
      <trkpt lat="45.70467" lon="6.65228">
        <ele>1764</ele>
        <time>2014-07-27T06:55:43Z</time>
      </trkpt>
      <trkpt lat="45.70483" lon="6.65267">
        <ele>1767</ele>
        <time>2014-07-27T06:56:08Z</time>
      </trkpt>
      <trkpt lat="45.70496" lon="6.65313">
        <ele>1773</ele>
        <time>2014-07-27T06:56:33Z</time>
      </trkpt>
      <trkpt lat="45.70508" lon="6.65356">
        <ele>1777</ele>
        <time>2014-07-27T06:56:53Z</time>
      </trkpt>
      <trkpt lat="45.70528" lon="6.65394">
        <ele>1780</ele>
        <time>2014-07-27T06:57:15Z</time>
      </trkpt>
      <trkpt lat="45.70537" lon="6.65414">
        <ele>1782</ele>
        <time>2014-07-27T06:57:27Z</time>
      </trkpt>
      <trkpt lat="45.70547" lon="6.65442">
        <ele>1786</ele>
        <time>2014-07-27T06:57:43Z</time>
      </trkpt>
      <trkpt lat="45.70554" lon="6.65463">
        <ele>1788</ele>
        <time>2014-07-27T06:57:55Z</time>
      </trkpt>
      <trkpt lat="45.70568" lon="6.65507">
        <ele>1793.8</ele>
        <time>2014-07-27T06:58:19Z</time>
      </trkpt>
      <trkpt lat="45.70584" lon="6.65513">
        <ele>1798</ele>
        <time>2014-07-27T06:58:38Z</time>
      </trkpt>
      <trkpt lat="45.70586" lon="6.65484">
        <ele>1798</ele>
        <time>2014-07-27T06:58:54Z</time>
      </trkpt>
      <trkpt lat="45.70598" lon="6.65486">
        <ele>1800</ele>
        <time>2014-07-27T06:59:11Z</time>
      </trkpt>
      <trkpt lat="45.70601" lon="6.65525">
        <ele>1802</ele>
        <time>2014-07-27T06:59:35Z</time>
      </trkpt>
      <trkpt lat="45.70601" lon="6.65565">
        <ele>1805</ele>
        <time>2014-07-27T06:59:57Z</time>
      </trkpt>
      <trkpt lat="45.706" lon="6.65607">
        <ele>1809.2</ele>
        <time>2014-07-27T07:00:19Z</time>
      </trkpt>
      <trkpt lat="45.70606" lon="6.65636">
        <ele>1814.2</ele>
        <time>2014-07-27T07:00:34Z</time>
      </trkpt>
      <trkpt lat="45.70625" lon="6.65669">
        <ele>1820</ele>
        <time>2014-07-27T07:00:55Z</time>
      </trkpt>
      <trkpt lat="45.70641" lon="6.65691">
        <ele>1824</ele>
        <time>2014-07-27T07:01:13Z</time>
      </trkpt>
      <trkpt lat="45.70633" lon="6.65704">
        <ele>1828</ele>
        <time>2014-07-27T07:01:32Z</time>
      </trkpt>
      <trkpt lat="45.70621" lon="6.65698">
        <ele>1830</ele>
        <time>2014-07-27T07:01:43Z</time>
      </trkpt>
      <trkpt lat="45.70597" lon="6.65695">
        <ele>1833</ele>
        <time>2014-07-27T07:02:05Z</time>
      </trkpt>
      <trkpt lat="45.70578" lon="6.65693">
        <ele>1836.8</ele>
        <time>2014-07-27T07:02:20Z</time>
      </trkpt>
      <trkpt lat="45.7056" lon="6.65709">
        <ele>1842</ele>
        <time>2014-07-27T07:02:38Z</time>
      </trkpt>
      <trkpt lat="45.70548" lon="6.65733">
        <ele>1846</ele>
        <time>2014-07-27T07:02:53Z</time>
      </trkpt>
      <trkpt lat="45.70543" lon="6.65755">
        <ele>1852</ele>
        <time>2014-07-27T07:03:26Z</time>
      </trkpt>
      <trkpt lat="45.70559" lon="6.65749">
        <ele>1857</ele>
        <time>2014-07-27T07:03:53Z</time>
      </trkpt>
      <trkpt lat="45.70574" lon="6.65756">
        <ele>1860</ele>
        <time>2014-07-27T07:04:13Z</time>
      </trkpt>
      <trkpt lat="45.70599" lon="6.65777">
        <ele>1866</ele>
        <time>2014-07-27T07:05:06Z</time>
      </trkpt>
      <trkpt lat="45.70621" lon="6.65799">
        <ele>1870</ele>
        <time>2014-07-27T07:05:25Z</time>
      </trkpt>
      <trkpt lat="45.7065" lon="6.65822">
        <ele>1876</ele>
        <time>2014-07-27T07:05:53Z</time>
      </trkpt>
      <trkpt lat="45.70672" lon="6.65842">
        <ele>1880</ele>
        <time>2014-07-27T07:06:15Z</time>
      </trkpt>
      <trkpt lat="45.70687" lon="6.6586">
        <ele>1884</ele>
        <time>2014-07-27T07:06:31Z</time>
      </trkpt>
      <trkpt lat="45.70702" lon="6.6589">
        <ele>1890</ele>
        <time>2014-07-27T07:06:52Z</time>
      </trkpt>
      <trkpt lat="45.70698" lon="6.65917">
        <ele>1898</ele>
        <time>2014-07-27T07:07:41Z</time>
      </trkpt>
      <trkpt lat="45.70678" lon="6.6591">
        <ele>1899.6</ele>
        <time>2014-07-27T07:08:00Z</time>
      </trkpt>
      <trkpt lat="45.70687" lon="6.6594">
        <ele>1905</ele>
        <time>2014-07-27T07:08:46Z</time>
      </trkpt>
      <trkpt lat="45.70693" lon="6.6596">
        <ele>1908</ele>
        <time>2014-07-27T07:08:58Z</time>
      </trkpt>
      <trkpt lat="45.70711" lon="6.65996">
        <ele>1916.6</ele>
        <time>2014-07-27T07:09:20Z</time>
      </trkpt>
      <trkpt lat="45.70705" lon="6.66004">
        <ele>1919</ele>
        <time>2014-07-27T07:13:09Z</time>
      </trkpt>
      <trkpt lat="45.70698" lon="6.65999">
        <ele>1920</ele>
        <time>2014-07-27T07:13:15Z</time>
      </trkpt>
      <trkpt lat="45.70667" lon="6.65988">
        <ele>1923</ele>
        <time>2014-07-27T07:13:39Z</time>
      </trkpt>
      <trkpt lat="45.70653" lon="6.65978">
        <ele>1925</ele>
        <time>2014-07-27T07:13:49Z</time>
      </trkpt>
      <trkpt lat="45.70632" lon="6.65969">
        <ele>1929</ele>
        <time>2014-07-27T07:14:03Z</time>
      </trkpt>
      <trkpt lat="45.70616" lon="6.65964">
        <ele>1931</ele>
        <time>2014-07-27T07:14:11Z</time>
      </trkpt>
      <trkpt lat="45.70612" lon="6.65976">
        <ele>1934</ele>
        <time>2014-07-27T07:14:42Z</time>
      </trkpt>
      <trkpt lat="45.70632" lon="6.65991">
        <ele>1936.2</ele>
        <time>2014-07-27T07:15:00Z</time>
      </trkpt>
      <trkpt lat="45.70646" lon="6.66018">
        <ele>1939</ele>
        <time>2014-07-27T07:15:12Z</time>
      </trkpt>
      <trkpt lat="45.70654" lon="6.66035">
        <ele>1941.2</ele>
        <time>2014-07-27T07:15:20Z</time>
      </trkpt>
      <trkpt lat="45.70637" lon="6.66028">
        <ele>1946</ele>
        <time>2014-07-27T07:15:32Z</time>
      </trkpt>
      <trkpt lat="45.70607" lon="6.66013">
        <ele>1951</ele>
        <time>2014-07-27T07:15:51Z</time>
      </trkpt>
      <trkpt lat="45.70588" lon="6.66037">
        <ele>1955</ele>
        <time>2014-07-27T07:16:19Z</time>
      </trkpt>
      <trkpt lat="45.70596" lon="6.66074">
        <ele>1964.2</ele>
        <time>2014-07-27T07:16:40Z</time>
      </trkpt>
      <trkpt lat="45.70619" lon="6.66089">
        <ele>1968</ele>
        <time>2014-07-27T07:17:23Z</time>
      </trkpt>
      <trkpt lat="45.70632" lon="6.66126">
        <ele>1969</ele>
        <time>2014-07-27T07:18:24Z</time>
      </trkpt>
      <trkpt lat="45.70635" lon="6.66137">
        <ele>1969</ele>
        <time>2014-07-27T07:18:26Z</time>
      </trkpt>
      <trkpt lat="45.70638" lon="6.66181">
        <ele>1968</ele>
        <time>2014-07-27T07:18:35Z</time>
      </trkpt>
      <trkpt lat="45.7064" lon="6.66221">
        <ele>1966</ele>
        <time>2014-07-27T07:18:53Z</time>
      </trkpt>
      <trkpt lat="45.70642" lon="6.66229">
        <ele>1966</ele>
        <time>2014-07-27T07:18:57Z</time>
      </trkpt>
      <trkpt lat="45.70658" lon="6.66262">
        <ele>1968</ele>
        <time>2014-07-27T07:19:14Z</time>
      </trkpt>
      <trkpt lat="45.70669" lon="6.66287">
        <ele>1968</ele>
        <time>2014-07-27T07:19:28Z</time>
      </trkpt>
      <trkpt lat="45.70686" lon="6.6632">
        <ele>1969</ele>
        <time>2014-07-27T07:19:41Z</time>
      </trkpt>
      <trkpt lat="45.70702" lon="6.66342">
        <ele>1969</ele>
        <time>2014-07-27T07:19:51Z</time>
      </trkpt>
      <trkpt lat="45.7072" lon="6.66355">
        <ele>1971</ele>
        <time>2014-07-27T07:20:02Z</time>
      </trkpt>
      <trkpt lat="45.70738" lon="6.66382">
        <ele>1973</ele>
        <time>2014-07-27T07:20:18Z</time>
      </trkpt>
      <trkpt lat="45.70745" lon="6.66398">
        <ele>1975</ele>
        <time>2014-07-27T07:20:28Z</time>
      </trkpt>
      <trkpt lat="45.70761" lon="6.66424">
        <ele>1979</ele>
        <time>2014-07-27T07:20:45Z</time>
      </trkpt>
      <trkpt lat="45.70775" lon="6.66439">
        <ele>1981</ele>
        <time>2014-07-27T07:20:59Z</time>
      </trkpt>
      <trkpt lat="45.70795" lon="6.66463">
        <ele>1982</ele>
        <time>2014-07-27T07:21:23Z</time>
      </trkpt>
      <trkpt lat="45.70801" lon="6.6648">
        <ele>1982</ele>
        <time>2014-07-27T07:21:33Z</time>
      </trkpt>
      <trkpt lat="45.70823" lon="6.66506">
        <ele>1984</ele>
        <time>2014-07-27T07:21:51Z</time>
      </trkpt>
      <trkpt lat="45.70857" lon="6.66514">
        <ele>1986</ele>
        <time>2014-07-27T07:22:13Z</time>
      </trkpt>
      <trkpt lat="45.70875" lon="6.66526">
        <ele>1987</ele>
        <time>2014-07-27T07:22:27Z</time>
      </trkpt>
      <trkpt lat="45.70887" lon="6.66554">
        <ele>1990</ele>
        <time>2014-07-27T07:22:43Z</time>
      </trkpt>
      <trkpt lat="45.70891" lon="6.66572">
        <ele>1991</ele>
        <time>2014-07-27T07:22:53Z</time>
      </trkpt>
      <trkpt lat="45.70872" lon="6.66594">
        <ele>1997</ele>
        <time>2014-07-27T07:24:14Z</time>
      </trkpt>
      <trkpt lat="45.70844" lon="6.66598">
        <ele>2005</ele>
        <time>2014-07-27T07:24:56Z</time>
      </trkpt>
      <trkpt lat="45.70829" lon="6.66618">
        <ele>2012</ele>
        <time>2014-07-27T07:25:31Z</time>
      </trkpt>
      <trkpt lat="45.7079" lon="6.66611">
        <ele>2023</ele>
        <time>2014-07-27T07:26:37Z</time>
      </trkpt>
      <trkpt lat="45.7079" lon="6.66635">
        <ele>2034</ele>
        <time>2014-07-27T07:27:25Z</time>
      </trkpt>
      <trkpt lat="45.70804" lon="6.66676">
        <ele>2044</ele>
        <time>2014-07-27T07:28:11Z</time>
      </trkpt>
      <trkpt lat="45.70803" lon="6.66705">
        <ele>2052</ele>
        <time>2014-07-27T07:28:52Z</time>
      </trkpt>
      <trkpt lat="45.70781" lon="6.66722">
        <ele>2061</ele>
        <time>2014-07-27T07:29:46Z</time>
      </trkpt>
      <trkpt lat="45.7079" lon="6.66751">
        <ele>2062</ele>
        <time>2014-07-27T07:30:46Z</time>
      </trkpt>
      <trkpt lat="45.70804" lon="6.66773">
        <ele>2064</ele>
        <time>2014-07-27T07:31:06Z</time>
      </trkpt>
      <trkpt lat="45.70816" lon="6.66787">
        <ele>2068</ele>
        <time>2014-07-27T07:31:22Z</time>
      </trkpt>
      <trkpt lat="45.70828" lon="6.66809">
        <ele>2070</ele>
        <time>2014-07-27T07:31:54Z</time>
      </trkpt>
      <trkpt lat="45.70843" lon="6.66823">
        <ele>2071</ele>
        <time>2014-07-27T07:32:10Z</time>
      </trkpt>
      <trkpt lat="45.70861" lon="6.66834">
        <ele>2072</ele>
        <time>2014-07-27T07:32:24Z</time>
      </trkpt>
      <trkpt lat="45.7088" lon="6.66842">
        <ele>2073</ele>
        <time>2014-07-27T07:32:42Z</time>
      </trkpt>
      <trkpt lat="45.70892" lon="6.66853">
        <ele>2072</ele>
        <time>2014-07-27T07:33:05Z</time>
      </trkpt>
      <trkpt lat="45.70912" lon="6.66872">
        <ele>2072</ele>
        <time>2014-07-27T07:33:21Z</time>
      </trkpt>
      <trkpt lat="45.70932" lon="6.6689">
        <ele>2073</ele>
        <time>2014-07-27T07:33:52Z</time>
      </trkpt>
      <trkpt lat="45.70943" lon="6.66906">
        <ele>2074</ele>
        <time>2014-07-27T07:34:23Z</time>
      </trkpt>
      <trkpt lat="45.70965" lon="6.66923">
        <ele>2076</ele>
        <time>2014-07-27T07:34:53Z</time>
      </trkpt>
      <trkpt lat="45.70979" lon="6.66943">
        <ele>2076</ele>
        <time>2014-07-27T07:35:13Z</time>
      </trkpt>
      <trkpt lat="45.70988" lon="6.66953">
        <ele>2077</ele>
        <time>2014-07-27T07:35:24Z</time>
      </trkpt>
      <trkpt lat="45.71" lon="6.66963">
        <ele>2080</ele>
        <time>2014-07-27T07:35:40Z</time>
      </trkpt>
      <trkpt lat="45.71013" lon="6.66986">
        <ele>2081.6</ele>
        <time>2014-07-27T07:36:10Z</time>
      </trkpt>
      <trkpt lat="45.71029" lon="6.67003">
        <ele>2081</ele>
        <time>2014-07-27T07:36:31Z</time>
      </trkpt>
      <trkpt lat="45.71043" lon="6.67021">
        <ele>2082</ele>
        <time>2014-07-27T07:36:57Z</time>
      </trkpt>
      <trkpt lat="45.71051" lon="6.67042">
        <ele>2088</ele>
        <time>2014-07-27T07:37:48Z</time>
      </trkpt>
      <trkpt lat="45.71064" lon="6.6706">
        <ele>2089</ele>
        <time>2014-07-27T07:38:13Z</time>
      </trkpt>
      <trkpt lat="45.71085" lon="6.67092">
        <ele>2098</ele>
        <time>2014-07-27T07:38:51Z</time>
      </trkpt>
      <trkpt lat="45.71089" lon="6.67112">
        <ele>2101</ele>
        <time>2014-07-27T07:39:24Z</time>
      </trkpt>
      <trkpt lat="45.71108" lon="6.67144">
        <ele>2102</ele>
        <time>2014-07-27T07:40:05Z</time>
      </trkpt>
      <trkpt lat="45.71119" lon="6.67162">
        <ele>2102</ele>
        <time>2014-07-27T07:40:26Z</time>
      </trkpt>
      <trkpt lat="45.71114" lon="6.67199">
        <ele>2110</ele>
        <time>2014-07-27T07:41:08Z</time>
      </trkpt>
      <trkpt lat="45.71107" lon="6.67228">
        <ele>2119</ele>
        <time>2014-07-27T07:41:47Z</time>
      </trkpt>
      <trkpt lat="45.71112" lon="6.67258">
        <ele>2124</ele>
        <time>2014-07-27T07:42:25Z</time>
      </trkpt>
      <trkpt lat="45.71118" lon="6.67282">
        <ele>2124</ele>
        <time>2014-07-27T07:43:25Z</time>
      </trkpt>
      <trkpt lat="45.71115" lon="6.67324">
        <ele>2131</ele>
        <time>2014-07-27T07:44:31Z</time>
      </trkpt>
      <trkpt lat="45.71114" lon="6.67361">
        <ele>2136</ele>
        <time>2014-07-27T07:45:06Z</time>
      </trkpt>
      <trkpt lat="45.71105" lon="6.67394">
        <ele>2140</ele>
        <time>2014-07-27T07:45:43Z</time>
      </trkpt>
      <trkpt lat="45.71117" lon="6.67436">
        <ele>2147</ele>
        <time>2014-07-27T07:46:28Z</time>
      </trkpt>
      <trkpt lat="45.71121" lon="6.67463">
        <ele>2150</ele>
        <time>2014-07-27T07:46:55Z</time>
      </trkpt>
      <trkpt lat="45.71111" lon="6.67469">
        <ele>2156</ele>
        <time>2014-07-27T07:47:48Z</time>
      </trkpt>
      <trkpt lat="45.71099" lon="6.67472">
        <ele>2162</ele>
        <time>2014-07-27T07:48:42Z</time>
      </trkpt>
      <trkpt lat="45.71076" lon="6.67447">
        <ele>2166</ele>
        <time>2014-07-27T07:49:17Z</time>
      </trkpt>
      <trkpt lat="45.7106" lon="6.67417">
        <ele>2172</ele>
        <time>2014-07-27T07:49:53Z</time>
      </trkpt>
      <trkpt lat="45.71055" lon="6.6743">
        <ele>2176</ele>
        <time>2014-07-27T07:50:18Z</time>
      </trkpt>
      <trkpt lat="45.71036" lon="6.674">
        <ele>2181</ele>
        <time>2014-07-27T07:51:03Z</time>
      </trkpt>
      <trkpt lat="45.71034" lon="6.67414">
        <ele>2183.6</ele>
        <time>2014-07-27T07:51:30Z</time>
      </trkpt>
      <trkpt lat="45.7102" lon="6.67405">
        <ele>2187.6</ele>
        <time>2014-07-27T07:52:10Z</time>
      </trkpt>
      <trkpt lat="45.71005" lon="6.67425">
        <ele>2197</ele>
        <time>2014-07-27T07:53:04Z</time>
      </trkpt>
      <trkpt lat="45.70988" lon="6.67435">
        <ele>2205.6</ele>
        <time>2014-07-27T07:53:55Z</time>
      </trkpt>
      <trkpt lat="45.70971" lon="6.67396">
        <ele>2208</ele>
        <time>2014-07-27T07:54:33Z</time>
      </trkpt>
      <trkpt lat="45.70962" lon="6.67383">
        <ele>2210</ele>
        <time>2014-07-27T07:54:52Z</time>
      </trkpt>
      <trkpt lat="45.70961" lon="6.6741">
        <ele>2214</ele>
        <time>2014-07-27T07:55:27Z</time>
      </trkpt>
      <trkpt lat="45.7095" lon="6.6744">
        <ele>2225</ele>
        <time>2014-07-27T07:56:33Z</time>
      </trkpt>
      <trkpt lat="45.70933" lon="6.67449">
        <ele>2235</ele>
        <time>2014-07-27T08:00:58Z</time>
      </trkpt>
      <trkpt lat="45.70925" lon="6.6744">
        <ele>2237</ele>
        <time>2014-07-27T08:01:23Z</time>
      </trkpt>
      <trkpt lat="45.70916" lon="6.67428">
        <ele>2240</ele>
        <time>2014-07-27T08:01:44Z</time>
      </trkpt>
      <trkpt lat="45.70899" lon="6.67405">
        <ele>2246</ele>
        <time>2014-07-27T08:02:26Z</time>
      </trkpt>
      <trkpt lat="45.70888" lon="6.67387">
        <ele>2251</ele>
        <time>2014-07-27T08:02:52Z</time>
      </trkpt>
      <trkpt lat="45.70885" lon="6.67421">
        <ele>2256</ele>
        <time>2014-07-27T08:03:34Z</time>
      </trkpt>
      <trkpt lat="45.70884" lon="6.67443">
        <ele>2260</ele>
        <time>2014-07-27T08:03:58Z</time>
      </trkpt>
      <trkpt lat="45.70878" lon="6.67484">
        <ele>2269</ele>
        <time>2014-07-27T08:04:59Z</time>
      </trkpt>
      <trkpt lat="45.70878" lon="6.6751">
        <ele>2272</ele>
        <time>2014-07-27T08:05:28Z</time>
      </trkpt>
      <trkpt lat="45.70872" lon="6.67554">
        <ele>2284.6</ele>
        <time>2014-07-27T08:07:05Z</time>
      </trkpt>
      <trkpt lat="45.70846" lon="6.67533">
        <ele>2297</ele>
        <time>2014-07-27T08:08:07Z</time>
      </trkpt>
      <trkpt lat="45.70831" lon="6.67511">
        <ele>2304</ele>
        <time>2014-07-27T08:08:58Z</time>
      </trkpt>
      <trkpt lat="45.70812" lon="6.67529">
        <ele>2322</ele>
        <time>2014-07-27T08:10:01Z</time>
      </trkpt>
      <trkpt lat="45.7081" lon="6.67544">
        <ele>2325</ele>
        <time>2014-07-27T08:10:17Z</time>
      </trkpt>
      <trkpt lat="45.70794" lon="6.67542">
        <ele>2336</ele>
        <time>2014-07-27T08:16:23Z</time>
      </trkpt>
      <trkpt lat="45.70783" lon="6.67518">
        <ele>2335</ele>
        <time>2014-07-27T08:16:31Z</time>
      </trkpt>
      <trkpt lat="45.70767" lon="6.675">
        <ele>2332</ele>
        <time>2014-07-27T08:16:43Z</time>
      </trkpt>
      <trkpt lat="45.70755" lon="6.67492">
        <ele>2329.8</ele>
        <time>2014-07-27T08:16:50Z</time>
      </trkpt>
      <trkpt lat="45.70732" lon="6.67479">
        <ele>2325.2</ele>
        <time>2014-07-27T08:17:00Z</time>
      </trkpt>
      <trkpt lat="45.70721" lon="6.67468">
        <ele>2325</ele>
        <time>2014-07-27T08:17:09Z</time>
      </trkpt>
      <trkpt lat="45.7072" lon="6.67431">
        <ele>2320</ele>
        <time>2014-07-27T08:17:21Z</time>
      </trkpt>
      <trkpt lat="45.70708" lon="6.67396">
        <ele>2316</ele>
        <time>2014-07-27T08:17:31Z</time>
      </trkpt>
      <trkpt lat="45.70698" lon="6.67409">
        <ele>2311</ele>
        <time>2014-07-27T08:17:46Z</time>
      </trkpt>
      <trkpt lat="45.70688" lon="6.67424">
        <ele>2308</ele>
        <time>2014-07-27T08:17:59Z</time>
      </trkpt>
      <trkpt lat="45.70672" lon="6.67388">
        <ele>2303</ele>
        <time>2014-07-27T08:18:13Z</time>
      </trkpt>
      <trkpt lat="45.70655" lon="6.67351">
        <ele>2299</ele>
        <time>2014-07-27T08:18:29Z</time>
      </trkpt>
      <trkpt lat="45.70648" lon="6.67342">
        <ele>2295</ele>
        <time>2014-07-27T08:18:37Z</time>
      </trkpt>
      <trkpt lat="45.70648" lon="6.67388">
        <ele>2289</ele>
        <time>2014-07-27T08:18:57Z</time>
      </trkpt>
      <trkpt lat="45.70643" lon="6.67425">
        <ele>2284</ele>
        <time>2014-07-27T08:19:08Z</time>
      </trkpt>
      <trkpt lat="45.70634" lon="6.67391">
        <ele>2279</ele>
        <time>2014-07-27T08:19:21Z</time>
      </trkpt>
      <trkpt lat="45.70623" lon="6.67419">
        <ele>2272</ele>
        <time>2014-07-27T08:21:29Z</time>
      </trkpt>
      <trkpt lat="45.70614" lon="6.67435">
        <ele>2265.8</ele>
        <time>2014-07-27T08:22:00Z</time>
      </trkpt>
      <trkpt lat="45.70606" lon="6.67421">
        <ele>2263</ele>
        <time>2014-07-27T08:22:24Z</time>
      </trkpt>
      <trkpt lat="45.70596" lon="6.67399">
        <ele>2255</ele>
        <time>2014-07-27T08:23:09Z</time>
      </trkpt>
      <trkpt lat="45.70582" lon="6.67379">
        <ele>2250</ele>
        <time>2014-07-27T08:23:27Z</time>
      </trkpt>
      <trkpt lat="45.70559" lon="6.67373">
        <ele>2240</ele>
        <time>2014-07-27T08:24:24Z</time>
      </trkpt>
      <trkpt lat="45.70531" lon="6.6737">
        <ele>2228</ele>
        <time>2014-07-27T08:24:58Z</time>
      </trkpt>
      <trkpt lat="45.70518" lon="6.67373">
        <ele>2223</ele>
        <time>2014-07-27T08:25:43Z</time>
      </trkpt>
      <trkpt lat="45.7049" lon="6.67362">
        <ele>2215</ele>
        <time>2014-07-27T08:26:37Z</time>
      </trkpt>
      <trkpt lat="45.70464" lon="6.6735">
        <ele>2209</ele>
        <time>2014-07-27T08:27:13Z</time>
      </trkpt>
      <trkpt lat="45.70444" lon="6.67352">
        <ele>2203.8</ele>
        <time>2014-07-27T08:27:25Z</time>
      </trkpt>
      <trkpt lat="45.70418" lon="6.67354">
        <ele>2195.4</ele>
        <time>2014-07-27T08:27:41Z</time>
      </trkpt>
      <trkpt lat="45.70398" lon="6.67362">
        <ele>2187.8</ele>
        <time>2014-07-27T08:28:10Z</time>
      </trkpt>
      <trkpt lat="45.70395" lon="6.67375">
        <ele>2186</ele>
        <time>2014-07-27T08:28:33Z</time>
      </trkpt>
      <trkpt lat="45.704" lon="6.67417">
        <ele>2181</ele>
        <time>2014-07-27T08:29:07Z</time>
      </trkpt>
      <trkpt lat="45.70406" lon="6.67444">
        <ele>2177</ele>
        <time>2014-07-27T08:29:41Z</time>
      </trkpt>
      <trkpt lat="45.70422" lon="6.67483">
        <ele>2174</ele>
        <time>2014-07-27T08:30:21Z</time>
      </trkpt>
      <trkpt lat="45.70431" lon="6.67511">
        <ele>2171</ele>
        <time>2014-07-27T08:30:54Z</time>
      </trkpt>
      <trkpt lat="45.70436" lon="6.67544">
        <ele>2169</ele>
        <time>2014-07-27T08:31:06Z</time>
      </trkpt>
      <trkpt lat="45.70437" lon="6.67591">
        <ele>2170</ele>
        <time>2014-07-27T08:31:19Z</time>
      </trkpt>
      <trkpt lat="45.70436" lon="6.67602">
        <ele>2170</ele>
        <time>2014-07-27T08:35:08Z</time>
      </trkpt>
      <trkpt lat="45.70436" lon="6.67644">
        <ele>2170</ele>
        <time>2014-07-27T08:35:18Z</time>
      </trkpt>
      <trkpt lat="45.7044" lon="6.67686">
        <ele>2170</ele>
        <time>2014-07-27T08:35:25Z</time>
      </trkpt>
      <trkpt lat="45.70451" lon="6.67721">
        <ele>2167</ele>
        <time>2014-07-27T08:35:31Z</time>
      </trkpt>
      <trkpt lat="45.70444" lon="6.67765">
        <ele>2165</ele>
        <time>2014-07-27T08:35:39Z</time>
      </trkpt>
      <trkpt lat="45.70449" lon="6.67789">
        <ele>2163</ele>
        <time>2014-07-27T08:35:43Z</time>
      </trkpt>
      <trkpt lat="45.70455" lon="6.67823">
        <ele>2161</ele>
        <time>2014-07-27T08:35:49Z</time>
      </trkpt>
      <trkpt lat="45.70454" lon="6.67855">
        <ele>2159</ele>
        <time>2014-07-27T08:35:56Z</time>
      </trkpt>
      <trkpt lat="45.70454" lon="6.67886">
        <ele>2157</ele>
        <time>2014-07-27T08:36:04Z</time>
      </trkpt>
      <trkpt lat="45.70461" lon="6.6792">
        <ele>2156.4</ele>
        <time>2014-07-27T08:36:10Z</time>
      </trkpt>
      <trkpt lat="45.7048" lon="6.67952">
        <ele>2156</ele>
        <time>2014-07-27T08:36:17Z</time>
      </trkpt>
      <trkpt lat="45.70483" lon="6.67978">
        <ele>2153</ele>
        <time>2014-07-27T08:36:23Z</time>
      </trkpt>
      <trkpt lat="45.70477" lon="6.67999">
        <ele>2151</ele>
        <time>2014-07-27T08:36:27Z</time>
      </trkpt>
      <trkpt lat="45.70477" lon="6.68042">
        <ele>2148.4</ele>
        <time>2014-07-27T08:36:35Z</time>
      </trkpt>
      <trkpt lat="45.70475" lon="6.68087">
        <ele>2147</ele>
        <time>2014-07-27T08:36:44Z</time>
      </trkpt>
      <trkpt lat="45.70469" lon="6.68112">
        <ele>2144</ele>
        <time>2014-07-27T08:36:54Z</time>
      </trkpt>
      <trkpt lat="45.70467" lon="6.68158">
        <ele>2147</ele>
        <time>2014-07-27T08:37:37Z</time>
      </trkpt>
      <trkpt lat="45.70465" lon="6.68195">
        <ele>2148</ele>
        <time>2014-07-27T08:37:51Z</time>
      </trkpt>
      <trkpt lat="45.70462" lon="6.68237">
        <ele>2149</ele>
        <time>2014-07-27T08:38:07Z</time>
      </trkpt>
      <trkpt lat="45.70469" lon="6.68276">
        <ele>2152</ele>
        <time>2014-07-27T08:38:23Z</time>
      </trkpt>
      <trkpt lat="45.70473" lon="6.68288">
        <ele>2152</ele>
        <time>2014-07-27T08:38:29Z</time>
      </trkpt>
      <trkpt lat="45.70482" lon="6.68303">
        <ele>2153</ele>
        <time>2014-07-27T08:38:41Z</time>
      </trkpt>
      <trkpt lat="45.70505" lon="6.68315">
        <ele>2152</ele>
        <time>2014-07-27T08:38:55Z</time>
      </trkpt>
      <trkpt lat="45.70519" lon="6.68337">
        <ele>2151</ele>
        <time>2014-07-27T08:39:29Z</time>
      </trkpt>
      <trkpt lat="45.70541" lon="6.68363">
        <ele>2154</ele>
        <time>2014-07-27T08:40:06Z</time>
      </trkpt>
      <trkpt lat="45.70541" lon="6.68381">
        <ele>2154</ele>
        <time>2014-07-27T08:40:14Z</time>
      </trkpt>
      <trkpt lat="45.70539" lon="6.68398">
        <ele>2155.2</ele>
        <time>2014-07-27T08:40:20Z</time>
      </trkpt>
      <trkpt lat="45.70546" lon="6.68421">
        <ele>2156</ele>
        <time>2014-07-27T08:40:28Z</time>
      </trkpt>
      <trkpt lat="45.70555" lon="6.68406">
        <ele>2157</ele>
        <time>2014-07-27T08:41:08Z</time>
      </trkpt>
      <trkpt lat="45.70576" lon="6.6841">
        <ele>2158</ele>
        <time>2014-07-27T08:41:19Z</time>
      </trkpt>
      <trkpt lat="45.70598" lon="6.68424">
        <ele>2164</ele>
        <time>2014-07-27T08:41:31Z</time>
      </trkpt>
      <trkpt lat="45.70607" lon="6.68437">
        <ele>2165</ele>
        <time>2014-07-27T08:41:38Z</time>
      </trkpt>
      <trkpt lat="45.70622" lon="6.68476">
        <ele>2170</ele>
        <time>2014-07-27T08:42:35Z</time>
      </trkpt>
      <trkpt lat="45.70638" lon="6.68509">
        <ele>2174</ele>
        <time>2014-07-27T08:42:54Z</time>
      </trkpt>
      <trkpt lat="45.70657" lon="6.68538">
        <ele>2178</ele>
        <time>2014-07-27T08:43:14Z</time>
      </trkpt>
      <trkpt lat="45.70681" lon="6.68567">
        <ele>2180</ele>
        <time>2014-07-27T08:43:38Z</time>
      </trkpt>
      <trkpt lat="45.70701" lon="6.68596">
        <ele>2183</ele>
        <time>2014-07-27T08:43:59Z</time>
      </trkpt>
      <trkpt lat="45.7071" lon="6.6862">
        <ele>2187</ele>
        <time>2014-07-27T08:44:14Z</time>
      </trkpt>
      <trkpt lat="45.70691" lon="6.6865">
        <ele>2187</ele>
        <time>2014-07-27T08:44:47Z</time>
      </trkpt>
      <trkpt lat="45.70683" lon="6.68693">
        <ele>2189</ele>
        <time>2014-07-27T08:45:02Z</time>
      </trkpt>
      <trkpt lat="45.70684" lon="6.68727">
        <ele>2189</ele>
        <time>2014-07-27T08:45:17Z</time>
      </trkpt>
      <trkpt lat="45.70665" lon="6.68749">
        <ele>2190</ele>
        <time>2014-07-27T08:45:37Z</time>
      </trkpt>
      <trkpt lat="45.70664" lon="6.68762">
        <ele>2190</ele>
        <time>2014-07-27T08:45:43Z</time>
      </trkpt>
      <trkpt lat="45.70675" lon="6.68775">
        <ele>2190</ele>
        <time>2014-07-27T08:45:52Z</time>
      </trkpt>
      <trkpt lat="45.70681" lon="6.68785">
        <ele>2190</ele>
        <time>2014-07-27T08:45:56Z</time>
      </trkpt>
      <trkpt lat="45.7066" lon="6.68816">
        <ele>2191</ele>
        <time>2014-07-27T08:46:09Z</time>
      </trkpt>
      <trkpt lat="45.70647" lon="6.68843">
        <ele>2196</ele>
        <time>2014-07-27T08:46:23Z</time>
      </trkpt>
      <trkpt lat="45.70648" lon="6.68879">
        <ele>2200</ele>
        <time>2014-07-27T08:46:57Z</time>
      </trkpt>
      <trkpt lat="45.70644" lon="6.68898">
        <ele>2202</ele>
        <time>2014-07-27T08:47:04Z</time>
      </trkpt>
      <trkpt lat="45.70661" lon="6.68925">
        <ele>2204</ele>
        <time>2014-07-27T08:47:21Z</time>
      </trkpt>
      <trkpt lat="45.70679" lon="6.68931">
        <ele>2205</ele>
        <time>2014-07-27T08:47:36Z</time>
      </trkpt>
      <trkpt lat="45.70693" lon="6.68922">
        <ele>2206</ele>
        <time>2014-07-27T08:47:47Z</time>
      </trkpt>
      <trkpt lat="45.70694" lon="6.68905">
        <ele>2206</ele>
        <time>2014-07-27T08:47:53Z</time>
      </trkpt>
      <trkpt lat="45.70706" lon="6.68892">
        <ele>2207</ele>
        <time>2014-07-27T08:48:03Z</time>
      </trkpt>
      <trkpt lat="45.70718" lon="6.68891">
        <ele>2208.2</ele>
        <time>2014-07-27T08:48:10Z</time>
      </trkpt>
      <trkpt lat="45.70744" lon="6.68892">
        <ele>2213</ele>
        <time>2014-07-27T08:48:24Z</time>
      </trkpt>
      <trkpt lat="45.70768" lon="6.68887">
        <ele>2220</ele>
        <time>2014-07-27T08:48:57Z</time>
      </trkpt>
      <trkpt lat="45.70779" lon="6.68888">
        <ele>2223</ele>
        <time>2014-07-27T08:49:08Z</time>
      </trkpt>
      <trkpt lat="45.70807" lon="6.68903">
        <ele>2230</ele>
        <time>2014-07-27T08:49:41Z</time>
      </trkpt>
      <trkpt lat="45.70822" lon="6.689">
        <ele>2233</ele>
        <time>2014-07-27T08:49:56Z</time>
      </trkpt>
      <trkpt lat="45.70829" lon="6.68883">
        <ele>2233</ele>
        <time>2014-07-27T08:50:08Z</time>
      </trkpt>
      <trkpt lat="45.7084" lon="6.68856">
        <ele>2238</ele>
        <time>2014-07-27T08:50:31Z</time>
      </trkpt>
      <trkpt lat="45.70862" lon="6.68831">
        <ele>2242</ele>
        <time>2014-07-27T08:50:57Z</time>
      </trkpt>
      <trkpt lat="45.7088" lon="6.68827">
        <ele>2245</ele>
        <time>2014-07-27T08:51:16Z</time>
      </trkpt>
      <trkpt lat="45.70884" lon="6.68868">
        <ele>2250</ele>
        <time>2014-07-27T08:51:52Z</time>
      </trkpt>
      <trkpt lat="45.70881" lon="6.68892">
        <ele>2252</ele>
        <time>2014-07-27T08:52:07Z</time>
      </trkpt>
      <trkpt lat="45.70894" lon="6.68906">
        <ele>2258</ele>
        <time>2014-07-27T08:52:27Z</time>
      </trkpt>
      <trkpt lat="45.70913" lon="6.68887">
        <ele>2262.6</ele>
        <time>2014-07-27T08:52:50Z</time>
      </trkpt>
      <trkpt lat="45.70941" lon="6.68879">
        <ele>2265</ele>
        <time>2014-07-27T08:53:13Z</time>
      </trkpt>
      <trkpt lat="45.70956" lon="6.68892">
        <ele>2269</ele>
        <time>2014-07-27T08:53:29Z</time>
      </trkpt>
      <trkpt lat="45.70969" lon="6.68915">
        <ele>2273.6</ele>
        <time>2014-07-27T08:53:50Z</time>
      </trkpt>
      <trkpt lat="45.70963" lon="6.68957">
        <ele>2275</ele>
        <time>2014-07-27T08:54:22Z</time>
      </trkpt>
      <trkpt lat="45.70973" lon="6.68983">
        <ele>2277</ele>
        <time>2014-07-27T08:54:46Z</time>
      </trkpt>
      <trkpt lat="45.70998" lon="6.69">
        <ele>2280</ele>
        <time>2014-07-27T08:55:02Z</time>
      </trkpt>
      <trkpt lat="45.71009" lon="6.69032">
        <ele>2282.6</ele>
        <time>2014-07-27T08:55:40Z</time>
      </trkpt>
      <trkpt lat="45.71015" lon="6.69061">
        <ele>2284</ele>
        <time>2014-07-27T08:56:15Z</time>
      </trkpt>
      <trkpt lat="45.71004" lon="6.69084">
        <ele>2285</ele>
        <time>2014-07-27T08:56:35Z</time>
      </trkpt>
      <trkpt lat="45.70996" lon="6.69119">
        <ele>2286</ele>
        <time>2014-07-27T08:56:53Z</time>
      </trkpt>
      <trkpt lat="45.70996" lon="6.69137">
        <ele>2289.2</ele>
        <time>2014-07-27T08:57:05Z</time>
      </trkpt>
      <trkpt lat="45.70998" lon="6.69162">
        <ele>2291</ele>
        <time>2014-07-27T08:57:24Z</time>
      </trkpt>
      <trkpt lat="45.71" lon="6.69189">
        <ele>2291</ele>
        <time>2014-07-27T08:57:37Z</time>
      </trkpt>
      <trkpt lat="45.7101" lon="6.69211">
        <ele>2291</ele>
        <time>2014-07-27T08:57:48Z</time>
      </trkpt>
      <trkpt lat="45.71019" lon="6.69236">
        <ele>2294</ele>
        <time>2014-07-27T08:57:57Z</time>
      </trkpt>
      <trkpt lat="45.71038" lon="6.69271">
        <ele>2298.2</ele>
        <time>2014-07-27T08:58:15Z</time>
      </trkpt>
      <trkpt lat="45.71049" lon="6.69289">
        <ele>2301</ele>
        <time>2014-07-27T08:58:35Z</time>
      </trkpt>
      <trkpt lat="45.71062" lon="6.69296">
        <ele>2302</ele>
        <time>2014-07-27T08:58:44Z</time>
      </trkpt>
      <trkpt lat="45.71085" lon="6.69301">
        <ele>2301</ele>
        <time>2014-07-27T08:59:07Z</time>
      </trkpt>
      <trkpt lat="45.71103" lon="6.69338">
        <ele>2305</ele>
        <time>2014-07-27T08:59:46Z</time>
      </trkpt>
      <trkpt lat="45.71117" lon="6.6935">
        <ele>2307</ele>
        <time>2014-07-27T09:00:01Z</time>
      </trkpt>
      <trkpt lat="45.71128" lon="6.69368">
        <ele>2307</ele>
        <time>2014-07-27T09:00:14Z</time>
      </trkpt>
      <trkpt lat="45.71143" lon="6.6938">
        <ele>2307</ele>
        <time>2014-07-27T09:00:27Z</time>
      </trkpt>
      <trkpt lat="45.71156" lon="6.69399">
        <ele>2307</ele>
        <time>2014-07-27T09:00:41Z</time>
      </trkpt>
      <trkpt lat="45.71171" lon="6.69428">
        <ele>2310</ele>
        <time>2014-07-27T09:01:02Z</time>
      </trkpt>
      <trkpt lat="45.71165" lon="6.69449">
        <ele>2313</ele>
        <time>2014-07-27T09:02:08Z</time>
      </trkpt>
      <trkpt lat="45.71149" lon="6.69456">
        <ele>2313</ele>
        <time>2014-07-27T09:02:19Z</time>
      </trkpt>
      <trkpt lat="45.71126" lon="6.69476">
        <ele>2314.6</ele>
        <time>2014-07-27T09:02:40Z</time>
      </trkpt>
      <trkpt lat="45.71114" lon="6.69492">
        <ele>2316</ele>
        <time>2014-07-27T09:02:53Z</time>
      </trkpt>
      <trkpt lat="45.711" lon="6.69505">
        <ele>2321.2</ele>
        <time>2014-07-27T09:03:10Z</time>
      </trkpt>
      <trkpt lat="45.71078" lon="6.69513">
        <ele>2323</ele>
        <time>2014-07-27T09:03:29Z</time>
      </trkpt>
      <trkpt lat="45.7105" lon="6.6952">
        <ele>2327</ele>
        <time>2014-07-27T09:03:51Z</time>
      </trkpt>
      <trkpt lat="45.71024" lon="6.69526">
        <ele>2331.6</ele>
        <time>2014-07-27T09:04:15Z</time>
      </trkpt>
      <trkpt lat="45.71013" lon="6.69552">
        <ele>2334</ele>
        <time>2014-07-27T09:04:34Z</time>
      </trkpt>
      <trkpt lat="45.71002" lon="6.69576">
        <ele>2335</ele>
        <time>2014-07-27T09:04:51Z</time>
      </trkpt>
      <trkpt lat="45.7099" lon="6.69612">
        <ele>2341.6</ele>
        <time>2014-07-27T09:05:15Z</time>
      </trkpt>
      <trkpt lat="45.70978" lon="6.69589">
        <ele>2347</ele>
        <time>2014-07-27T09:05:37Z</time>
      </trkpt>
      <trkpt lat="45.7097" lon="6.69586">
        <ele>2352</ele>
        <time>2014-07-27T09:06:03Z</time>
      </trkpt>
      <trkpt lat="45.70974" lon="6.69612">
        <ele>2356</ele>
        <time>2014-07-27T09:06:23Z</time>
      </trkpt>
      <trkpt lat="45.7097" lon="6.69654">
        <ele>2359</ele>
        <time>2014-07-27T09:06:50Z</time>
      </trkpt>
      <trkpt lat="45.70965" lon="6.69685">
        <ele>2360</ele>
        <time>2014-07-27T09:07:09Z</time>
      </trkpt>
      <trkpt lat="45.70965" lon="6.69714">
        <ele>2362</ele>
        <time>2014-07-27T09:07:26Z</time>
      </trkpt>
      <trkpt lat="45.70961" lon="6.69743">
        <ele>2365.2</ele>
        <time>2014-07-27T09:07:45Z</time>
      </trkpt>
      <trkpt lat="45.70956" lon="6.69782">
        <ele>2368.2</ele>
        <time>2014-07-27T09:08:10Z</time>
      </trkpt>
      <trkpt lat="45.70959" lon="6.69815">
        <ele>2375.6</ele>
        <time>2014-07-27T09:08:35Z</time>
      </trkpt>
      <trkpt lat="45.70964" lon="6.69839">
        <ele>2381</ele>
        <time>2014-07-27T09:08:58Z</time>
      </trkpt>
      <trkpt lat="45.70979" lon="6.69869">
        <ele>2385</ele>
        <time>2014-07-27T09:09:49Z</time>
      </trkpt>
      <trkpt lat="45.70962" lon="6.69906">
        <ele>2389</ele>
        <time>2014-07-27T09:10:17Z</time>
      </trkpt>
      <trkpt lat="45.70958" lon="6.69934">
        <ele>2394</ele>
        <time>2014-07-27T09:10:43Z</time>
      </trkpt>
      <trkpt lat="45.70947" lon="6.69959">
        <ele>2398</ele>
        <time>2014-07-27T09:11:07Z</time>
      </trkpt>
      <trkpt lat="45.70946" lon="6.69985">
        <ele>2402</ele>
        <time>2014-07-27T09:11:31Z</time>
      </trkpt>
      <trkpt lat="45.70948" lon="6.7001">
        <ele>2404</ele>
        <time>2014-07-27T09:11:52Z</time>
      </trkpt>
      <trkpt lat="45.70935" lon="6.69991">
        <ele>2409.6</ele>
        <time>2014-07-27T09:12:25Z</time>
      </trkpt>
      <trkpt lat="45.7094" lon="6.69996">
        <ele>2419</ele>
        <time>2014-07-27T09:13:37Z</time>
      </trkpt>
      <trkpt lat="45.70949" lon="6.70024">
        <ele>2419</ele>
        <time>2014-07-27T09:13:44Z</time>
      </trkpt>
      <trkpt lat="45.7096" lon="6.70059">
        <ele>2418.4</ele>
        <time>2014-07-27T09:13:50Z</time>
      </trkpt>
      <trkpt lat="45.70965" lon="6.70077">
        <ele>2418</ele>
        <time>2014-07-27T09:13:54Z</time>
      </trkpt>
      <trkpt lat="45.70973" lon="6.70119">
        <ele>2416</ele>
        <time>2014-07-27T09:14:02Z</time>
      </trkpt>
      <trkpt lat="45.70985" lon="6.70161">
        <ele>2415</ele>
        <time>2014-07-27T09:14:11Z</time>
      </trkpt>
      <trkpt lat="45.70991" lon="6.7018">
        <ele>2415</ele>
        <time>2014-07-27T09:14:19Z</time>
      </trkpt>
      <trkpt lat="45.70997" lon="6.70209">
        <ele>2422</ele>
        <time>2014-07-27T09:15:03Z</time>
      </trkpt>
      <trkpt lat="45.71002" lon="6.70226">
        <ele>2425.2</ele>
        <time>2014-07-27T09:15:15Z</time>
      </trkpt>
      <trkpt lat="45.7101" lon="6.70247">
        <ele>2434</ele>
        <time>2014-07-27T09:16:02Z</time>
      </trkpt>
      <trkpt lat="45.71024" lon="6.70288">
        <ele>2443</ele>
        <time>2014-07-27T09:17:17Z</time>
      </trkpt>
      <trkpt lat="45.71035" lon="6.70327">
        <ele>2451</ele>
        <time>2014-07-27T09:17:53Z</time>
      </trkpt>
      <trkpt lat="45.71042" lon="6.70356">
        <ele>2456</ele>
        <time>2014-07-27T09:18:24Z</time>
      </trkpt>
      <trkpt lat="45.7105" lon="6.70399">
        <ele>2463</ele>
        <time>2014-07-27T09:18:59Z</time>
      </trkpt>
      <trkpt lat="45.71054" lon="6.70413">
        <ele>2465</ele>
        <time>2014-07-27T09:19:11Z</time>
      </trkpt>
      <trkpt lat="45.71064" lon="6.70439">
        <ele>2469</ele>
        <time>2014-07-27T09:19:34Z</time>
      </trkpt>
      <trkpt lat="45.71083" lon="6.70474">
        <ele>2475</ele>
        <time>2014-07-27T09:20:17Z</time>
      </trkpt>
      <trkpt lat="45.71104" lon="6.70523">
        <ele>2483.2</ele>
        <time>2014-07-27T09:21:10Z</time>
      </trkpt>
      <trkpt lat="45.71127" lon="6.70576">
        <ele>2490</ele>
        <time>2014-07-27T09:22:01Z</time>
      </trkpt>
      <trkpt lat="45.71132" lon="6.70591">
        <ele>2490</ele>
        <time>2014-07-27T09:22:06Z</time>
      </trkpt>
      <trkpt lat="45.71144" lon="6.70632">
        <ele>2493</ele>
        <time>2014-07-27T09:22:21Z</time>
      </trkpt>
      <trkpt lat="45.71152" lon="6.70647">
        <ele>2493</ele>
        <time>2014-07-27T09:22:29Z</time>
      </trkpt>
      <trkpt lat="45.71164" lon="6.7068">
        <ele>2498</ele>
        <time>2014-07-27T09:22:47Z</time>
      </trkpt>
      <trkpt lat="45.71178" lon="6.70715">
        <ele>2502</ele>
        <time>2014-07-27T09:23:01Z</time>
      </trkpt>
      <trkpt lat="45.71184" lon="6.70725">
        <ele>2503.2</ele>
        <time>2014-07-27T09:23:05Z</time>
      </trkpt>
      <trkpt lat="45.71205" lon="6.70754">
        <ele>2510</ele>
        <time>2014-07-27T09:23:20Z</time>
      </trkpt>
      <trkpt lat="45.71225" lon="6.70778">
        <ele>2513</ele>
        <time>2014-07-27T09:23:39Z</time>
      </trkpt>
      <trkpt lat="45.7124" lon="6.7082">
        <ele>2516.8</ele>
        <time>2014-07-27T09:24:00Z</time>
      </trkpt>
      <trkpt lat="45.71246" lon="6.70847">
        <ele>2521</ele>
        <time>2014-07-27T09:24:11Z</time>
      </trkpt>
      <trkpt lat="45.71263" lon="6.70886">
        <ele>2523.6</ele>
        <time>2014-07-27T09:24:30Z</time>
      </trkpt>
      <trkpt lat="45.71283" lon="6.709">
        <ele>2527</ele>
        <time>2014-07-27T09:27:41Z</time>
      </trkpt>
      <trkpt lat="45.71303" lon="6.7091">
        <ele>2527</ele>
        <time>2014-07-27T09:48:36Z</time>
      </trkpt>
      <trkpt lat="45.71328" lon="6.70925">
        <ele>2528</ele>
        <time>2014-07-27T09:50:21Z</time>
      </trkpt>
      <trkpt lat="45.71351" lon="6.70938">
        <ele>2529</ele>
        <time>2014-07-27T09:50:37Z</time>
      </trkpt>
      <trkpt lat="45.71362" lon="6.70953">
        <ele>2529</ele>
        <time>2014-07-27T09:50:46Z</time>
      </trkpt>
      <trkpt lat="45.71378" lon="6.70971">
        <ele>2531</ele>
        <time>2014-07-27T09:50:58Z</time>
      </trkpt>
      <trkpt lat="45.71389" lon="6.70982">
        <ele>2531</ele>
        <time>2014-07-27T09:51:04Z</time>
      </trkpt>
      <trkpt lat="45.71421" lon="6.71011">
        <ele>2530</ele>
        <time>2014-07-27T09:51:17Z</time>
      </trkpt>
      <trkpt lat="45.71433" lon="6.71024">
        <ele>2529</ele>
        <time>2014-07-27T09:51:23Z</time>
      </trkpt>
      <trkpt lat="45.71451" lon="6.71047">
        <ele>2527</ele>
        <time>2014-07-27T09:51:32Z</time>
      </trkpt>
      <trkpt lat="45.71445" lon="6.71061">
        <ele>2521.8</ele>
        <time>2014-07-27T09:52:00Z</time>
      </trkpt>
      <trkpt lat="45.71475" lon="6.71071">
        <ele>2519.4</ele>
        <time>2014-07-27T09:52:10Z</time>
      </trkpt>
      <trkpt lat="45.71486" lon="6.71072">
        <ele>2517</ele>
        <time>2014-07-27T09:52:16Z</time>
      </trkpt>
      <trkpt lat="45.71518" lon="6.71087">
        <ele>2509</ele>
        <time>2014-07-27T09:52:36Z</time>
      </trkpt>
      <trkpt lat="45.7153" lon="6.7109">
        <ele>2507</ele>
        <time>2014-07-27T09:52:51Z</time>
      </trkpt>
      <trkpt lat="45.7155" lon="6.71107">
        <ele>2504</ele>
        <time>2014-07-27T09:53:04Z</time>
      </trkpt>
      <trkpt lat="45.71573" lon="6.71118">
        <ele>2499</ele>
        <time>2014-07-27T09:53:16Z</time>
      </trkpt>
      <trkpt lat="45.71597" lon="6.71141">
        <ele>2498</ele>
        <time>2014-07-27T09:53:49Z</time>
      </trkpt>
      <trkpt lat="45.71618" lon="6.71164">
        <ele>2495</ele>
        <time>2014-07-27T09:54:03Z</time>
      </trkpt>
      <trkpt lat="45.71639" lon="6.71179">
        <ele>2493</ele>
        <time>2014-07-27T09:54:13Z</time>
      </trkpt>
      <trkpt lat="45.71658" lon="6.71186">
        <ele>2492</ele>
        <time>2014-07-27T09:54:22Z</time>
      </trkpt>
      <trkpt lat="45.71672" lon="6.71202">
        <ele>2492</ele>
        <time>2014-07-27T09:54:29Z</time>
      </trkpt>
      <trkpt lat="45.71679" lon="6.71221">
        <ele>2493</ele>
        <time>2014-07-27T09:54:35Z</time>
      </trkpt>
      <trkpt lat="45.71691" lon="6.71263">
        <ele>2488</ele>
        <time>2014-07-27T09:54:53Z</time>
      </trkpt>
      <trkpt lat="45.71706" lon="6.71294">
        <ele>2488</ele>
        <time>2014-07-27T09:55:05Z</time>
      </trkpt>
      <trkpt lat="45.71724" lon="6.71329">
        <ele>2486</ele>
        <time>2014-07-27T09:55:43Z</time>
      </trkpt>
      <trkpt lat="45.7174" lon="6.71348">
        <ele>2483</ele>
        <time>2014-07-27T09:55:51Z</time>
      </trkpt>
      <trkpt lat="45.71763" lon="6.71353">
        <ele>2477.8</ele>
        <time>2014-07-27T09:56:05Z</time>
      </trkpt>
      <trkpt lat="45.71783" lon="6.71376">
        <ele>2473</ele>
        <time>2014-07-27T09:56:19Z</time>
      </trkpt>
      <trkpt lat="45.71806" lon="6.71408">
        <ele>2466</ele>
        <time>2014-07-27T09:56:31Z</time>
      </trkpt>
      <trkpt lat="45.71822" lon="6.71439">
        <ele>2460</ele>
        <time>2014-07-27T09:57:02Z</time>
      </trkpt>
      <trkpt lat="45.71805" lon="6.71441">
        <ele>2457</ele>
        <time>2014-07-27T09:57:48Z</time>
      </trkpt>
      <trkpt lat="45.71814" lon="6.7145">
        <ele>2452</ele>
        <time>2014-07-27T09:59:15Z</time>
      </trkpt>
      <trkpt lat="45.71821" lon="6.71459">
        <ele>2452</ele>
        <time>2014-07-27T09:59:19Z</time>
      </trkpt>
      <trkpt lat="45.71859" lon="6.71468">
        <ele>2446</ele>
        <time>2014-07-27T09:59:42Z</time>
      </trkpt>
      <trkpt lat="45.71869" lon="6.71471">
        <ele>2443</ele>
        <time>2014-07-27T09:59:46Z</time>
      </trkpt>
      <trkpt lat="45.7189" lon="6.71486">
        <ele>2439</ele>
        <time>2014-07-27T09:59:53Z</time>
      </trkpt>
      <trkpt lat="45.71917" lon="6.71499">
        <ele>2433</ele>
        <time>2014-07-27T10:00:14Z</time>
      </trkpt>
      <trkpt lat="45.71928" lon="6.71502">
        <ele>2431</ele>
        <time>2014-07-27T10:00:19Z</time>
      </trkpt>
      <trkpt lat="45.71949" lon="6.71501">
        <ele>2424.5</ele>
        <time>2014-07-27T10:00:24Z</time>
      </trkpt>
      <trkpt lat="45.71975" lon="6.71488">
        <ele>2419.5</ele>
        <time>2014-07-27T10:00:28Z</time>
      </trkpt>
      <trkpt lat="45.7201" lon="6.71461">
        <ele>2418</ele>
        <time>2014-07-27T10:00:36Z</time>
      </trkpt>
      <trkpt lat="45.72039" lon="6.71451">
        <ele>2418</ele>
        <time>2014-07-27T10:00:48Z</time>
      </trkpt>
      <trkpt lat="45.72054" lon="6.71451">
        <ele>2422</ele>
        <time>2014-07-27T10:01:25Z</time>
      </trkpt>
      <trkpt lat="45.72076" lon="6.71483">
        <ele>2426</ele>
        <time>2014-07-27T10:02:27Z</time>
      </trkpt>
      <trkpt lat="45.72091" lon="6.71516">
        <ele>2428</ele>
        <time>2014-07-27T10:02:43Z</time>
      </trkpt>
      <trkpt lat="45.72109" lon="6.71548">
        <ele>2433</ele>
        <time>2014-07-27T10:03:02Z</time>
      </trkpt>
      <trkpt lat="45.72135" lon="6.71566">
        <ele>2434</ele>
        <time>2014-07-27T10:03:32Z</time>
      </trkpt>
      <trkpt lat="45.72171" lon="6.71583">
        <ele>2435</ele>
        <time>2014-07-27T10:03:55Z</time>
      </trkpt>
      <trkpt lat="45.72193" lon="6.716">
        <ele>2438</ele>
        <time>2014-07-27T10:04:13Z</time>
      </trkpt>
      <trkpt lat="45.72203" lon="6.71611">
        <ele>2440</ele>
        <time>2014-07-27T10:04:22Z</time>
      </trkpt>
      <trkpt lat="45.7221" lon="6.71631">
        <ele>2442</ele>
        <time>2014-07-27T10:04:42Z</time>
      </trkpt>
      <trkpt lat="45.72213" lon="6.71668">
        <ele>2445</ele>
        <time>2014-07-27T10:05:07Z</time>
      </trkpt>
      <trkpt lat="45.72202" lon="6.71706">
        <ele>2450</ele>
        <time>2014-07-27T10:05:25Z</time>
      </trkpt>
      <trkpt lat="45.7219" lon="6.71724">
        <ele>2451</ele>
        <time>2014-07-27T10:05:37Z</time>
      </trkpt>
      <trkpt lat="45.7219" lon="6.71742">
        <ele>2451</ele>
        <time>2014-07-27T10:05:45Z</time>
      </trkpt>
      <trkpt lat="45.72195" lon="6.71756">
        <ele>2452</ele>
        <time>2014-07-27T10:06:06Z</time>
      </trkpt>
      <trkpt lat="45.72223" lon="6.71752">
        <ele>2453</ele>
        <time>2014-07-27T10:06:19Z</time>
      </trkpt>
      <trkpt lat="45.72247" lon="6.71735">
        <ele>2461</ele>
        <time>2014-07-27T10:06:44Z</time>
      </trkpt>
      <trkpt lat="45.72259" lon="6.71729">
        <ele>2462</ele>
        <time>2014-07-27T10:07:04Z</time>
      </trkpt>
      <trkpt lat="45.72278" lon="6.71711">
        <ele>2464</ele>
        <time>2014-07-27T10:07:55Z</time>
      </trkpt>
      <trkpt lat="45.72295" lon="6.71708">
        <ele>2466</ele>
        <time>2014-07-27T10:08:33Z</time>
      </trkpt>
      <trkpt lat="45.72313" lon="6.71719">
        <ele>2473</ele>
        <time>2014-07-27T10:08:52Z</time>
      </trkpt>
      <trkpt lat="45.72337" lon="6.71711">
        <ele>2476</ele>
        <time>2014-07-27T10:09:33Z</time>
      </trkpt>
      <trkpt lat="45.72367" lon="6.71709">
        <ele>2480</ele>
        <time>2014-07-27T10:09:49Z</time>
      </trkpt>
      <trkpt lat="45.72386" lon="6.71719">
        <ele>2482</ele>
        <time>2014-07-27T10:10:01Z</time>
      </trkpt>
      <trkpt lat="45.72412" lon="6.71714">
        <ele>2487</ele>
        <time>2014-07-27T10:10:19Z</time>
      </trkpt>
      <trkpt lat="45.72436" lon="6.71698">
        <ele>2492</ele>
        <time>2014-07-27T10:10:49Z</time>
      </trkpt>
      <trkpt lat="45.72454" lon="6.71682">
        <ele>2499</ele>
        <time>2014-07-27T10:11:20Z</time>
      </trkpt>
      <trkpt lat="45.72466" lon="6.7171">
        <ele>2501</ele>
        <time>2014-07-27T10:11:42Z</time>
      </trkpt>
      <trkpt lat="45.72465" lon="6.71727">
        <ele>2502</ele>
        <time>2014-07-27T10:11:49Z</time>
      </trkpt>
      <trkpt lat="45.72469" lon="6.7175">
        <ele>2504</ele>
        <time>2014-07-27T10:11:59Z</time>
      </trkpt>
      <trkpt lat="45.7248" lon="6.71763">
        <ele>2505</ele>
        <time>2014-07-27T10:12:09Z</time>
      </trkpt>
      <trkpt lat="45.72496" lon="6.7178">
        <ele>2508</ele>
        <time>2014-07-27T10:12:24Z</time>
      </trkpt>
      <trkpt lat="45.725" lon="6.71814">
        <ele>2515</ele>
        <time>2014-07-27T10:12:59Z</time>
      </trkpt>
      <trkpt lat="45.72511" lon="6.71825">
        <ele>2514</ele>
        <time>2014-07-27T10:13:09Z</time>
      </trkpt>
      <trkpt lat="45.7253" lon="6.71839">
        <ele>2521</ele>
        <time>2014-07-27T10:13:23Z</time>
      </trkpt>
      <trkpt lat="45.72553" lon="6.71864">
        <ele>2527</ele>
        <time>2014-07-27T10:13:47Z</time>
      </trkpt>
      <trkpt lat="45.72567" lon="6.71884">
        <ele>2527</ele>
        <time>2014-07-27T10:14:01Z</time>
      </trkpt>
      <trkpt lat="45.72587" lon="6.71885">
        <ele>2532</ele>
        <time>2014-07-27T10:14:19Z</time>
      </trkpt>
      <trkpt lat="45.7261" lon="6.71897">
        <ele>2539</ele>
        <time>2014-07-27T10:15:08Z</time>
      </trkpt>
      <trkpt lat="45.72625" lon="6.71916">
        <ele>2546</ele>
        <time>2014-07-27T10:20:28Z</time>
      </trkpt>
      <trkpt lat="45.72637" lon="6.71926">
        <ele>2550</ele>
        <time>2014-07-27T10:20:49Z</time>
      </trkpt>
      <trkpt lat="45.72652" lon="6.7195">
        <ele>2554</ele>
        <time>2014-07-27T10:21:22Z</time>
      </trkpt>
      <trkpt lat="45.72661" lon="6.71976">
        <ele>2557</ele>
        <time>2014-07-27T10:21:52Z</time>
      </trkpt>
      <trkpt lat="45.72677" lon="6.71998">
        <ele>2559</ele>
        <time>2014-07-27T10:22:24Z</time>
      </trkpt>
      <trkpt lat="45.72698" lon="6.72018">
        <ele>2565</ele>
        <time>2014-07-27T10:23:04Z</time>
      </trkpt>
      <trkpt lat="45.72698" lon="6.72059">
        <ele>2569</ele>
        <time>2014-07-27T10:23:52Z</time>
      </trkpt>
      <trkpt lat="45.72722" lon="6.72085">
        <ele>2578</ele>
        <time>2014-07-27T10:24:42Z</time>
      </trkpt>
      <trkpt lat="45.72742" lon="6.72114">
        <ele>2582</ele>
        <time>2014-07-27T10:25:17Z</time>
      </trkpt>
      <trkpt lat="45.72763" lon="6.72133">
        <ele>2585</ele>
        <time>2014-07-27T10:25:43Z</time>
      </trkpt>
      <trkpt lat="45.72785" lon="6.72138">
        <ele>2587</ele>
        <time>2014-07-27T10:26:09Z</time>
      </trkpt>
      <trkpt lat="45.72799" lon="6.72145">
        <ele>2590</ele>
        <time>2014-07-27T10:26:25Z</time>
      </trkpt>
      <trkpt lat="45.72821" lon="6.72153">
        <ele>2595</ele>
        <time>2014-07-27T10:26:48Z</time>
      </trkpt>
      <trkpt lat="45.72838" lon="6.72181">
        <ele>2597</ele>
        <time>2014-07-27T10:27:15Z</time>
      </trkpt>
      <trkpt lat="45.72851" lon="6.72183">
        <ele>2598</ele>
        <time>2014-07-27T10:27:27Z</time>
      </trkpt>
      <trkpt lat="45.72883" lon="6.72183">
        <ele>2603</ele>
        <time>2014-07-27T10:28:03Z</time>
      </trkpt>
      <trkpt lat="45.729" lon="6.72189">
        <ele>2605</ele>
        <time>2014-07-27T10:28:24Z</time>
      </trkpt>
      <trkpt lat="45.72934" lon="6.72195">
        <ele>2609.5</ele>
        <time>2014-07-27T10:29:10Z</time>
      </trkpt>
      <trkpt lat="45.72971" lon="6.72207">
        <ele>2613</ele>
        <time>2014-07-27T10:29:51Z</time>
      </trkpt>
      <trkpt lat="45.72994" lon="6.72217">
        <ele>2620</ele>
        <time>2014-07-27T10:30:27Z</time>
      </trkpt>
      <trkpt lat="45.73016" lon="6.72244">
        <ele>2626</ele>
        <time>2014-07-27T10:31:07Z</time>
      </trkpt>
      <trkpt lat="45.73031" lon="6.72248">
        <ele>2627</ele>
        <time>2014-07-27T10:31:26Z</time>
      </trkpt>
      <trkpt lat="45.73065" lon="6.72254">
        <ele>2637</ele>
        <time>2014-07-27T10:32:26Z</time>
      </trkpt>
      <trkpt lat="45.73096" lon="6.72268">
        <ele>2646</ele>
        <time>2014-07-27T10:33:16Z</time>
      </trkpt>
      <trkpt lat="45.73117" lon="6.72261">
        <ele>2651</ele>
        <time>2014-07-27T10:33:47Z</time>
      </trkpt>
      <trkpt lat="45.73141" lon="6.72263">
        <ele>2658</ele>
        <time>2014-07-27T10:34:22Z</time>
      </trkpt>
      <trkpt lat="45.73161" lon="6.72287">
        <ele>2664</ele>
        <time>2014-07-27T10:34:56Z</time>
      </trkpt>
      <trkpt lat="45.73174" lon="6.72306">
        <ele>2668</ele>
        <time>2014-07-27T10:35:21Z</time>
      </trkpt>
      <trkpt lat="45.73202" lon="6.72319">
        <ele>2675</ele>
        <time>2014-07-27T10:36:15Z</time>
      </trkpt>
      <trkpt lat="45.73215" lon="6.72326">
        <ele>2677.5</ele>
        <time>2014-07-27T10:36:40Z</time>
      </trkpt>
      <trkpt lat="45.73231" lon="6.72302">
        <ele>2679</ele>
        <time>2014-07-27T10:37:04Z</time>
      </trkpt>
      <trkpt lat="45.73244" lon="6.72292">
        <ele>2684</ele>
        <time>2014-07-27T10:37:21Z</time>
      </trkpt>
      <trkpt lat="45.73272" lon="6.7228">
        <ele>2691.5</ele>
        <time>2014-07-27T10:38:05Z</time>
      </trkpt>
      <trkpt lat="45.73308" lon="6.72295">
        <ele>2693</ele>
        <time>2014-07-27T10:38:46Z</time>
      </trkpt>
      <trkpt lat="45.73318" lon="6.72296">
        <ele>2696</ele>
        <time>2014-07-27T10:38:57Z</time>
      </trkpt>
      <trkpt lat="45.73347" lon="6.72307">
        <ele>2702</ele>
        <time>2014-07-27T10:39:28Z</time>
      </trkpt>
      <trkpt lat="45.7337" lon="6.72332">
        <ele>2705</ele>
        <time>2014-07-27T10:39:49Z</time>
      </trkpt>
      <trkpt lat="45.73394" lon="6.72357">
        <ele>2706</ele>
        <time>2014-07-27T10:40:01Z</time>
      </trkpt>
      <trkpt lat="45.73403" lon="6.72363">
        <ele>2706</ele>
        <time>2014-07-27T10:40:07Z</time>
      </trkpt>
      <trkpt lat="45.73418" lon="6.72397">
        <ele>2716</ele>
        <time>2014-07-27T10:40:27Z</time>
      </trkpt>
      <trkpt lat="45.7343" lon="6.72421">
        <ele>2719</ele>
        <time>2014-07-27T10:40:43Z</time>
      </trkpt>
      <trkpt lat="45.73441" lon="6.72437">
        <ele>2720</ele>
        <time>2014-07-27T10:40:52Z</time>
      </trkpt>
      <trkpt lat="45.73463" lon="6.72467">
        <ele>2721</ele>
        <time>2014-07-27T10:41:08Z</time>
      </trkpt>
      <trkpt lat="45.73482" lon="6.72491">
        <ele>2728</ele>
        <time>2014-07-27T10:41:26Z</time>
      </trkpt>
      <trkpt lat="45.73493" lon="6.72508">
        <ele>2729</ele>
        <time>2014-07-27T10:41:39Z</time>
      </trkpt>
      <trkpt lat="45.73497" lon="6.72536">
        <ele>2735.5</ele>
        <time>2014-07-27T10:42:20Z</time>
      </trkpt>
      <trkpt lat="45.73502" lon="6.72553">
        <ele>2736</ele>
        <time>2014-07-27T10:42:29Z</time>
      </trkpt>
      <trkpt lat="45.73518" lon="6.72577">
        <ele>2746</ele>
        <time>2014-07-27T10:42:46Z</time>
      </trkpt>
      <trkpt lat="45.73545" lon="6.72601">
        <ele>2755</ele>
        <time>2014-07-27T10:43:26Z</time>
      </trkpt>
      <trkpt lat="45.73527" lon="6.72579">
        <ele>2754</ele>
        <time>2014-07-27T11:03:46Z</time>
      </trkpt>
      <trkpt lat="45.73519" lon="6.7257">
        <ele>2754</ele>
        <time>2014-07-27T11:03:48Z</time>
      </trkpt>
      <trkpt lat="45.73503" lon="6.72544">
        <ele>2742</ele>
        <time>2014-07-27T11:03:54Z</time>
      </trkpt>
      <trkpt lat="45.73495" lon="6.72501">
        <ele>2734.5</ele>
        <time>2014-07-27T11:04:02Z</time>
      </trkpt>
      <trkpt lat="45.73482" lon="6.72483">
        <ele>2731</ele>
        <time>2014-07-27T11:04:06Z</time>
      </trkpt>
      <trkpt lat="45.73455" lon="6.72455">
        <ele>2726</ele>
        <time>2014-07-27T11:04:11Z</time>
      </trkpt>
      <trkpt lat="45.73436" lon="6.72431">
        <ele>2722</ele>
        <time>2014-07-27T11:04:14Z</time>
      </trkpt>
      <trkpt lat="45.73423" lon="6.72404">
        <ele>2721.5</ele>
        <time>2014-07-27T11:04:18Z</time>
      </trkpt>
      <trkpt lat="45.73406" lon="6.72376">
        <ele>2718</ele>
        <time>2014-07-27T11:04:23Z</time>
      </trkpt>
      <trkpt lat="45.73398" lon="6.72369">
        <ele>2715</ele>
        <time>2014-07-27T11:04:25Z</time>
      </trkpt>
      <trkpt lat="45.73374" lon="6.72341">
        <ele>2709.5</ele>
        <time>2014-07-27T11:04:30Z</time>
      </trkpt>
      <trkpt lat="45.73348" lon="6.72324">
        <ele>2705.5</ele>
        <time>2014-07-27T11:04:35Z</time>
      </trkpt>
      <trkpt lat="45.73325" lon="6.7231">
        <ele>2700.5</ele>
        <time>2014-07-27T11:04:43Z</time>
      </trkpt>
      <trkpt lat="45.73311" lon="6.72306">
        <ele>2699</ele>
        <time>2014-07-27T11:04:59Z</time>
      </trkpt>
      <trkpt lat="45.73293" lon="6.72292">
        <ele>2698</ele>
        <time>2014-07-27T11:05:19Z</time>
      </trkpt>
      <trkpt lat="45.73281" lon="6.72294">
        <ele>2696</ele>
        <time>2014-07-27T11:05:37Z</time>
      </trkpt>
      <trkpt lat="45.73261" lon="6.72291">
        <ele>2696</ele>
        <time>2014-07-27T11:05:49Z</time>
      </trkpt>
      <trkpt lat="45.73232" lon="6.72301">
        <ele>2690</ele>
        <time>2014-07-27T11:05:59Z</time>
      </trkpt>
      <trkpt lat="45.73216" lon="6.72331">
        <ele>2681</ele>
        <time>2014-07-27T11:06:09Z</time>
      </trkpt>
      <trkpt lat="45.73225" lon="6.72342">
        <ele>2681</ele>
        <time>2014-07-27T11:06:20Z</time>
      </trkpt>
      <trkpt lat="45.73223" lon="6.72331">
        <ele>2681</ele>
        <time>2014-07-27T11:06:40Z</time>
      </trkpt>
      <trkpt lat="45.73208" lon="6.72331">
        <ele>2680</ele>
        <time>2014-07-27T11:08:09Z</time>
      </trkpt>
      <trkpt lat="45.73196" lon="6.72334">
        <ele>2676</ele>
        <time>2014-07-27T11:08:38Z</time>
      </trkpt>
      <trkpt lat="45.73176" lon="6.72344">
        <ele>2669</ele>
        <time>2014-07-27T11:09:48Z</time>
      </trkpt>
      <trkpt lat="45.73173" lon="6.72365">
        <ele>2669</ele>
        <time>2014-07-27T11:10:38Z</time>
      </trkpt>
      <trkpt lat="45.73158" lon="6.72383">
        <ele>2674</ele>
        <time>2014-07-27T11:11:07Z</time>
      </trkpt>
      <trkpt lat="45.73135" lon="6.724">
        <ele>2673</ele>
        <time>2014-07-27T11:11:35Z</time>
      </trkpt>
      <trkpt lat="45.7313" lon="6.72441">
        <ele>2664</ele>
        <time>2014-07-27T11:11:53Z</time>
      </trkpt>
      <trkpt lat="45.73122" lon="6.72474">
        <ele>2659</ele>
        <time>2014-07-27T11:12:10Z</time>
      </trkpt>
      <trkpt lat="45.73115" lon="6.72502">
        <ele>2653</ele>
        <time>2014-07-27T11:12:21Z</time>
      </trkpt>
      <trkpt lat="45.73109" lon="6.72532">
        <ele>2648</ele>
        <time>2014-07-27T11:12:30Z</time>
      </trkpt>
      <trkpt lat="45.73102" lon="6.72554">
        <ele>2638.5</ele>
        <time>2014-07-27T11:12:36Z</time>
      </trkpt>
      <trkpt lat="45.73083" lon="6.72583">
        <ele>2629.5</ele>
        <time>2014-07-27T11:12:48Z</time>
      </trkpt>
      <trkpt lat="45.7308" lon="6.72611">
        <ele>2619</ele>
        <time>2014-07-27T11:13:04Z</time>
      </trkpt>
      <trkpt lat="45.73068" lon="6.72632">
        <ele>2614.5</ele>
        <time>2014-07-27T11:13:11Z</time>
      </trkpt>
      <trkpt lat="45.73056" lon="6.72658">
        <ele>2608</ele>
        <time>2014-07-27T11:13:35Z</time>
      </trkpt>
      <trkpt lat="45.73048" lon="6.72683">
        <ele>2599</ele>
        <time>2014-07-27T11:13:43Z</time>
      </trkpt>
      <trkpt lat="45.73056" lon="6.72701">
        <ele>2592.5</ele>
        <time>2014-07-27T11:13:57Z</time>
      </trkpt>
      <trkpt lat="45.73051" lon="6.72731">
        <ele>2582.5</ele>
        <time>2014-07-27T11:14:55Z</time>
      </trkpt>
      <trkpt lat="45.73032" lon="6.72752">
        <ele>2572</ele>
        <time>2014-07-27T11:15:32Z</time>
      </trkpt>
      <trkpt lat="45.7302" lon="6.72772">
        <ele>2559</ele>
        <time>2014-07-27T11:17:34Z</time>
      </trkpt>
      <trkpt lat="45.73014" lon="6.72806">
        <ele>2549</ele>
        <time>2014-07-27T11:18:51Z</time>
      </trkpt>
      <trkpt lat="45.73011" lon="6.72827">
        <ele>2544</ele>
        <time>2014-07-27T11:19:19Z</time>
      </trkpt>
      <trkpt lat="45.73012" lon="6.72853">
        <ele>2540</ele>
        <time>2014-07-27T11:19:28Z</time>
      </trkpt>
      <trkpt lat="45.73003" lon="6.72885">
        <ele>2529</ele>
        <time>2014-07-27T11:19:46Z</time>
      </trkpt>
      <trkpt lat="45.72984" lon="6.72893">
        <ele>2522</ele>
        <time>2014-07-27T11:20:27Z</time>
      </trkpt>
      <trkpt lat="45.72977" lon="6.72915">
        <ele>2515</ele>
        <time>2014-07-27T11:21:05Z</time>
      </trkpt>
      <trkpt lat="45.72961" lon="6.72936">
        <ele>2506</ele>
        <time>2014-07-27T11:21:35Z</time>
      </trkpt>
      <trkpt lat="45.7294" lon="6.72955">
        <ele>2496.5</ele>
        <time>2014-07-27T11:21:53Z</time>
      </trkpt>
      <trkpt lat="45.72915" lon="6.72989">
        <ele>2488</ele>
        <time>2014-07-27T11:22:29Z</time>
      </trkpt>
      <trkpt lat="45.72913" lon="6.73018">
        <ele>2477</ele>
        <time>2014-07-27T11:22:53Z</time>
      </trkpt>
      <trkpt lat="45.72913" lon="6.73061">
        <ele>2467</ele>
        <time>2014-07-27T11:23:44Z</time>
      </trkpt>
      <trkpt lat="45.72903" lon="6.731">
        <ele>2462</ele>
        <time>2014-07-27T11:24:15Z</time>
      </trkpt>
      <trkpt lat="45.729" lon="6.73121">
        <ele>2457</ele>
        <time>2014-07-27T11:27:40Z</time>
      </trkpt>
      <trkpt lat="45.72893" lon="6.73161">
        <ele>2452</ele>
        <time>2014-07-27T11:27:52Z</time>
      </trkpt>
      <trkpt lat="45.72885" lon="6.7318">
        <ele>2450</ele>
        <time>2014-07-27T11:27:59Z</time>
      </trkpt>
      <trkpt lat="45.72876" lon="6.73216">
        <ele>2443</ele>
        <time>2014-07-27T11:28:13Z</time>
      </trkpt>
      <trkpt lat="45.72848" lon="6.73243">
        <ele>2441</ele>
        <time>2014-07-27T11:28:24Z</time>
      </trkpt>
      <trkpt lat="45.72838" lon="6.73249">
        <ele>2440</ele>
        <time>2014-07-27T11:28:32Z</time>
      </trkpt>
      <trkpt lat="45.72818" lon="6.73285">
        <ele>2439</ele>
        <time>2014-07-27T11:28:46Z</time>
      </trkpt>
      <trkpt lat="45.728" lon="6.73324">
        <ele>2436</ele>
        <time>2014-07-27T11:29:31Z</time>
      </trkpt>
      <trkpt lat="45.72797" lon="6.73339">
        <ele>2436</ele>
        <time>2014-07-27T11:29:47Z</time>
      </trkpt>
      <trkpt lat="45.72785" lon="6.73381">
        <ele>2436</ele>
        <time>2014-07-27T11:30:07Z</time>
      </trkpt>
      <trkpt lat="45.72779" lon="6.73409">
        <ele>2436</ele>
        <time>2014-07-27T11:30:16Z</time>
      </trkpt>
      <trkpt lat="45.72767" lon="6.73444">
        <ele>2438</ele>
        <time>2014-07-27T11:30:55Z</time>
      </trkpt>
      <trkpt lat="45.72749" lon="6.73501">
        <ele>2441</ele>
        <time>2014-07-27T11:31:23Z</time>
      </trkpt>
      <trkpt lat="45.72746" lon="6.73516">
        <ele>2441</ele>
        <time>2014-07-27T11:31:30Z</time>
      </trkpt>
      <trkpt lat="45.72733" lon="6.7354">
        <ele>2444</ele>
        <time>2014-07-27T11:31:43Z</time>
      </trkpt>
      <trkpt lat="45.72721" lon="6.73576">
        <ele>2449</ele>
        <time>2014-07-27T11:32:15Z</time>
      </trkpt>
      <trkpt lat="45.72702" lon="6.73581">
        <ele>2450</ele>
        <time>2014-07-27T11:32:31Z</time>
      </trkpt>
      <trkpt lat="45.72684" lon="6.73599">
        <ele>2449</ele>
        <time>2014-07-27T11:32:41Z</time>
      </trkpt>
      <trkpt lat="45.72665" lon="6.73627">
        <ele>2449</ele>
        <time>2014-07-27T11:32:58Z</time>
      </trkpt>
      <trkpt lat="45.72641" lon="6.73651">
        <ele>2451</ele>
        <time>2014-07-27T11:33:14Z</time>
      </trkpt>
      <trkpt lat="45.72621" lon="6.73689">
        <ele>2456</ele>
        <time>2014-07-27T11:33:44Z</time>
      </trkpt>
      <trkpt lat="45.72609" lon="6.73709">
        <ele>2456</ele>
        <time>2014-07-27T11:33:55Z</time>
      </trkpt>
      <trkpt lat="45.72592" lon="6.73726">
        <ele>2457</ele>
        <time>2014-07-27T11:34:11Z</time>
      </trkpt>
      <trkpt lat="45.72578" lon="6.73735">
        <ele>2458</ele>
        <time>2014-07-27T11:34:21Z</time>
      </trkpt>
      <trkpt lat="45.72568" lon="6.73761">
        <ele>2456</ele>
        <time>2014-07-27T11:35:04Z</time>
      </trkpt>
      <trkpt lat="45.72555" lon="6.73771">
        <ele>2456</ele>
        <time>2014-07-27T11:36:20Z</time>
      </trkpt>
      <trkpt lat="45.72541" lon="6.73783">
        <ele>2453</ele>
        <time>2014-07-27T11:36:31Z</time>
      </trkpt>
      <trkpt lat="45.72548" lon="6.73805">
        <ele>2448</ele>
        <time>2014-07-27T11:36:56Z</time>
      </trkpt>
      <trkpt lat="45.7255" lon="6.73829">
        <ele>2444</ele>
        <time>2014-07-27T11:37:02Z</time>
      </trkpt>
      <trkpt lat="45.72559" lon="6.73857">
        <ele>2440</ele>
        <time>2014-07-27T11:37:11Z</time>
      </trkpt>
      <trkpt lat="45.72561" lon="6.73873">
        <ele>2437</ele>
        <time>2014-07-27T11:37:16Z</time>
      </trkpt>
      <trkpt lat="45.72561" lon="6.73906">
        <ele>2429.5</ele>
        <time>2014-07-27T11:37:24Z</time>
      </trkpt>
      <trkpt lat="45.72559" lon="6.73935">
        <ele>2423.5</ele>
        <time>2014-07-27T11:37:30Z</time>
      </trkpt>
      <trkpt lat="45.7256" lon="6.73964">
        <ele>2419</ele>
        <time>2014-07-27T11:37:40Z</time>
      </trkpt>
      <trkpt lat="45.72542" lon="6.73976">
        <ele>2415</ele>
        <time>2014-07-27T11:37:51Z</time>
      </trkpt>
      <trkpt lat="45.72545" lon="6.74005">
        <ele>2413</ele>
        <time>2014-07-27T11:37:58Z</time>
      </trkpt>
      <trkpt lat="45.72527" lon="6.74021">
        <ele>2408</ele>
        <time>2014-07-27T11:38:18Z</time>
      </trkpt>
      <trkpt lat="45.72521" lon="6.74048">
        <ele>2405</ele>
        <time>2014-07-27T11:40:15Z</time>
      </trkpt>
      <trkpt lat="45.72509" lon="6.74072">
        <ele>2404</ele>
        <time>2014-07-27T11:40:22Z</time>
      </trkpt>
      <trkpt lat="45.72488" lon="6.74078">
        <ele>2404</ele>
        <time>2014-07-27T11:40:40Z</time>
      </trkpt>
      <trkpt lat="45.72467" lon="6.74091">
        <ele>2404</ele>
        <time>2014-07-27T11:40:48Z</time>
      </trkpt>
      <trkpt lat="45.72438" lon="6.7408">
        <ele>2404.5</ele>
        <time>2014-07-27T11:41:40Z</time>
      </trkpt>
      <trkpt lat="45.72445" lon="6.74095">
        <ele>2404</ele>
        <time>2014-07-27T12:05:06Z</time>
      </trkpt>
      <trkpt lat="45.72442" lon="6.7408">
        <ele>2404</ele>
        <time>2014-07-27T12:06:58Z</time>
      </trkpt>
      <trkpt lat="45.72432" lon="6.74042">
        <ele>2404.6</ele>
        <time>2014-07-27T12:08:10Z</time>
      </trkpt>
      <trkpt lat="45.72425" lon="6.74006">
        <ele>2406</ele>
        <time>2014-07-27T12:08:26Z</time>
      </trkpt>
      <trkpt lat="45.72407" lon="6.73972">
        <ele>2407</ele>
        <time>2014-07-27T12:09:06Z</time>
      </trkpt>
      <trkpt lat="45.72399" lon="6.73952">
        <ele>2408</ele>
        <time>2014-07-27T12:09:18Z</time>
      </trkpt>
      <trkpt lat="45.72387" lon="6.73932">
        <ele>2411</ele>
        <time>2014-07-27T12:09:33Z</time>
      </trkpt>
      <trkpt lat="45.72373" lon="6.73901">
        <ele>2412</ele>
        <time>2014-07-27T12:09:54Z</time>
      </trkpt>
      <trkpt lat="45.72358" lon="6.73878">
        <ele>2417</ele>
        <time>2014-07-27T12:10:12Z</time>
      </trkpt>
      <trkpt lat="45.72354" lon="6.73853">
        <ele>2421</ele>
        <time>2014-07-27T12:10:52Z</time>
      </trkpt>
      <trkpt lat="45.72336" lon="6.73806">
        <ele>2430.6</ele>
        <time>2014-07-27T12:11:40Z</time>
      </trkpt>
      <trkpt lat="45.72342" lon="6.73766">
        <ele>2435</ele>
        <time>2014-07-27T12:12:15Z</time>
      </trkpt>
      <trkpt lat="45.72333" lon="6.73742">
        <ele>2435</ele>
        <time>2014-07-27T12:12:28Z</time>
      </trkpt>
      <trkpt lat="45.72317" lon="6.73715">
        <ele>2440</ele>
        <time>2014-07-27T12:12:46Z</time>
      </trkpt>
      <trkpt lat="45.72327" lon="6.73675">
        <ele>2444</ele>
        <time>2014-07-27T12:13:14Z</time>
      </trkpt>
      <trkpt lat="45.72336" lon="6.73645">
        <ele>2456</ele>
        <time>2014-07-27T12:13:53Z</time>
      </trkpt>
      <trkpt lat="45.72314" lon="6.73629">
        <ele>2462</ele>
        <time>2014-07-27T12:14:29Z</time>
      </trkpt>
      <trkpt lat="45.723" lon="6.73599">
        <ele>2465</ele>
        <time>2014-07-27T12:15:05Z</time>
      </trkpt>
      <trkpt lat="45.72288" lon="6.73562">
        <ele>2476</ele>
        <time>2014-07-27T12:15:42Z</time>
      </trkpt>
      <trkpt lat="45.72273" lon="6.73543">
        <ele>2482</ele>
        <time>2014-07-27T12:16:07Z</time>
      </trkpt>
      <trkpt lat="45.7226" lon="6.73509">
        <ele>2489</ele>
        <time>2014-07-27T12:16:48Z</time>
      </trkpt>
      <trkpt lat="45.72252" lon="6.73477">
        <ele>2501.6</ele>
        <time>2014-07-27T12:17:25Z</time>
      </trkpt>
      <trkpt lat="45.72246" lon="6.73476">
        <ele>2502</ele>
        <time>2014-07-27T12:18:50Z</time>
      </trkpt>
      <trkpt lat="45.72234" lon="6.73463">
        <ele>2500</ele>
        <time>2014-07-27T12:27:08Z</time>
      </trkpt>
      <trkpt lat="45.7221" lon="6.73446">
        <ele>2499</ele>
        <time>2014-07-27T12:27:16Z</time>
      </trkpt>
      <trkpt lat="45.72197" lon="6.7344">
        <ele>2495.9</ele>
        <time>2014-07-27T12:27:20Z</time>
      </trkpt>
      <trkpt lat="45.72173" lon="6.73443">
        <ele>2485</ele>
        <time>2014-07-27T12:28:03Z</time>
      </trkpt>
      <trkpt lat="45.72149" lon="6.73447">
        <ele>2480.6</ele>
        <time>2014-07-27T12:28:15Z</time>
      </trkpt>
      <trkpt lat="45.72131" lon="6.73422">
        <ele>2473.2</ele>
        <time>2014-07-27T12:28:21Z</time>
      </trkpt>
      <trkpt lat="45.7212" lon="6.73417">
        <ele>2471</ele>
        <time>2014-07-27T12:28:24Z</time>
      </trkpt>
      <trkpt lat="45.72097" lon="6.73415">
        <ele>2469</ele>
        <time>2014-07-27T12:28:38Z</time>
      </trkpt>
      <trkpt lat="45.72086" lon="6.73407">
        <ele>2464.4</ele>
        <time>2014-07-27T12:28:42Z</time>
      </trkpt>
      <trkpt lat="45.72064" lon="6.734">
        <ele>2459.6</ele>
        <time>2014-07-27T12:28:51Z</time>
      </trkpt>
      <trkpt lat="45.72045" lon="6.73389">
        <ele>2454</ele>
        <time>2014-07-27T12:29:05Z</time>
      </trkpt>
      <trkpt lat="45.72026" lon="6.73376">
        <ele>2448.8</ele>
        <time>2014-07-27T12:29:25Z</time>
      </trkpt>
      <trkpt lat="45.72007" lon="6.73362">
        <ele>2443</ele>
        <time>2014-07-27T12:29:42Z</time>
      </trkpt>
      <trkpt lat="45.71988" lon="6.73351">
        <ele>2436.4</ele>
        <time>2014-07-27T12:29:52Z</time>
      </trkpt>
      <trkpt lat="45.7197" lon="6.73348">
        <ele>2433</ele>
        <time>2014-07-27T12:30:00Z</time>
      </trkpt>
      <trkpt lat="45.71961" lon="6.73342">
        <ele>2431.4</ele>
        <time>2014-07-27T12:30:03Z</time>
      </trkpt>
      <trkpt lat="45.71945" lon="6.7332">
        <ele>2428</ele>
        <time>2014-07-27T12:30:09Z</time>
      </trkpt>
      <trkpt lat="45.71947" lon="6.73295">
        <ele>2423</ele>
        <time>2014-07-27T12:31:49Z</time>
      </trkpt>
      <trkpt lat="45.71919" lon="6.73269">
        <ele>2416.8</ele>
        <time>2014-07-27T12:32:02Z</time>
      </trkpt>
      <trkpt lat="45.71897" lon="6.73254">
        <ele>2410.4</ele>
        <time>2014-07-27T12:32:08Z</time>
      </trkpt>
      <trkpt lat="45.71863" lon="6.73241">
        <ele>2399.4</ele>
        <time>2014-07-27T12:32:22Z</time>
      </trkpt>
      <trkpt lat="45.71841" lon="6.73241">
        <ele>2395.4</ele>
        <time>2014-07-27T12:32:29Z</time>
      </trkpt>
      <trkpt lat="45.71821" lon="6.73226">
        <ele>2388.4</ele>
        <time>2014-07-27T12:32:35Z</time>
      </trkpt>
      <trkpt lat="45.71807" lon="6.73217">
        <ele>2385.8</ele>
        <time>2014-07-27T12:32:38Z</time>
      </trkpt>
      <trkpt lat="45.71786" lon="6.7321">
        <ele>2383</ele>
        <time>2014-07-27T12:32:42Z</time>
      </trkpt>
      <trkpt lat="45.71774" lon="6.73209">
        <ele>2383</ele>
        <time>2014-07-27T12:32:44Z</time>
      </trkpt>
      <trkpt lat="45.71741" lon="6.73212">
        <ele>2377</ele>
        <time>2014-07-27T12:32:56Z</time>
      </trkpt>
      <trkpt lat="45.71709" lon="6.73206">
        <ele>2374.8</ele>
        <time>2014-07-27T12:34:10Z</time>
      </trkpt>
      <trkpt lat="45.71691" lon="6.73206">
        <ele>2374</ele>
        <time>2014-07-27T12:34:14Z</time>
      </trkpt>
      <trkpt lat="45.71665" lon="6.73201">
        <ele>2367.6</ele>
        <time>2014-07-27T12:34:20Z</time>
      </trkpt>
      <trkpt lat="45.71651" lon="6.73196">
        <ele>2362.4</ele>
        <time>2014-07-27T12:34:23Z</time>
      </trkpt>
      <trkpt lat="45.71634" lon="6.73182">
        <ele>2359.4</ele>
        <time>2014-07-27T12:34:27Z</time>
      </trkpt>
      <trkpt lat="45.71611" lon="6.73159">
        <ele>2353.4</ele>
        <time>2014-07-27T12:34:33Z</time>
      </trkpt>
      <trkpt lat="45.71601" lon="6.73164">
        <ele>2351.8</ele>
        <time>2014-07-27T12:34:35Z</time>
      </trkpt>
      <trkpt lat="45.71571" lon="6.73188">
        <ele>2345.4</ele>
        <time>2014-07-27T12:34:43Z</time>
      </trkpt>
      <trkpt lat="45.71554" lon="6.73193">
        <ele>2341.4</ele>
        <time>2014-07-27T12:34:47Z</time>
      </trkpt>
      <trkpt lat="45.71525" lon="6.73196">
        <ele>2336.4</ele>
        <time>2014-07-27T12:34:53Z</time>
      </trkpt>
      <trkpt lat="45.71504" lon="6.73191">
        <ele>2332.4</ele>
        <time>2014-07-27T12:34:58Z</time>
      </trkpt>
      <trkpt lat="45.71463" lon="6.73209">
        <ele>2325.8</ele>
        <time>2014-07-27T12:35:05Z</time>
      </trkpt>
      <trkpt lat="45.71451" lon="6.73208">
        <ele>2327</ele>
        <time>2014-07-27T12:40:04Z</time>
      </trkpt>
      <trkpt lat="45.71442" lon="6.73193">
        <ele>2327</ele>
        <time>2014-07-27T12:40:08Z</time>
      </trkpt>
      <trkpt lat="45.71435" lon="6.73157">
        <ele>2319.9</ele>
        <time>2014-07-27T12:40:15Z</time>
      </trkpt>
      <trkpt lat="45.71422" lon="6.73129">
        <ele>2314</ele>
        <time>2014-07-27T12:40:22Z</time>
      </trkpt>
      <trkpt lat="45.71407" lon="6.73118">
        <ele>2311</ele>
        <time>2014-07-27T12:40:37Z</time>
      </trkpt>
      <trkpt lat="45.71397" lon="6.7313">
        <ele>2308</ele>
        <time>2014-07-27T12:41:24Z</time>
      </trkpt>
      <trkpt lat="45.71382" lon="6.73103">
        <ele>2301</ele>
        <time>2014-07-27T12:41:42Z</time>
      </trkpt>
      <trkpt lat="45.71361" lon="6.73094">
        <ele>2294</ele>
        <time>2014-07-27T12:41:52Z</time>
      </trkpt>
      <trkpt lat="45.71343" lon="6.7309">
        <ele>2289</ele>
        <time>2014-07-27T12:42:00Z</time>
      </trkpt>
      <trkpt lat="45.71346" lon="6.73097">
        <ele>2287</ele>
        <time>2014-07-27T12:43:19Z</time>
      </trkpt>
      <trkpt lat="45.71333" lon="6.73107">
        <ele>2283.2</ele>
        <time>2014-07-27T12:44:50Z</time>
      </trkpt>
      <trkpt lat="45.71316" lon="6.73127">
        <ele>2281</ele>
        <time>2014-07-27T12:44:58Z</time>
      </trkpt>
      <trkpt lat="45.7131" lon="6.73142">
        <ele>2275</ele>
        <time>2014-07-27T12:45:02Z</time>
      </trkpt>
      <trkpt lat="45.71294" lon="6.73132">
        <ele>2270</ele>
        <time>2014-07-27T12:45:28Z</time>
      </trkpt>
      <trkpt lat="45.71274" lon="6.73142">
        <ele>2269</ele>
        <time>2014-07-27T12:45:37Z</time>
      </trkpt>
      <trkpt lat="45.71254" lon="6.73154">
        <ele>2259.4</ele>
        <time>2014-07-27T12:45:44Z</time>
      </trkpt>
      <trkpt lat="45.71233" lon="6.73165">
        <ele>2255.4</ele>
        <time>2014-07-27T12:45:50Z</time>
      </trkpt>
      <trkpt lat="45.71202" lon="6.73167">
        <ele>2253</ele>
        <time>2014-07-27T12:46:07Z</time>
      </trkpt>
      <trkpt lat="45.71175" lon="6.73163">
        <ele>2247</ele>
        <time>2014-07-27T12:46:26Z</time>
      </trkpt>
      <trkpt lat="45.71147" lon="6.73164">
        <ele>2243.8</ele>
        <time>2014-07-27T12:46:35Z</time>
      </trkpt>
      <trkpt lat="45.71139" lon="6.73154">
        <ele>2242.4</ele>
        <time>2014-07-27T12:46:40Z</time>
      </trkpt>
      <trkpt lat="45.71119" lon="6.73134">
        <ele>2238</ele>
        <time>2014-07-27T12:47:22Z</time>
      </trkpt>
      <trkpt lat="45.71101" lon="6.7313">
        <ele>2235</ele>
        <time>2014-07-27T12:47:39Z</time>
      </trkpt>
      <trkpt lat="45.7109" lon="6.73154">
        <ele>2232</ele>
        <time>2014-07-27T12:47:58Z</time>
      </trkpt>
      <trkpt lat="45.71086" lon="6.73182">
        <ele>2230</ele>
        <time>2014-07-27T12:48:08Z</time>
      </trkpt>
      <trkpt lat="45.71076" lon="6.7319">
        <ele>2230</ele>
        <time>2014-07-27T12:48:14Z</time>
      </trkpt>
      <trkpt lat="45.71057" lon="6.7322">
        <ele>2228</ele>
        <time>2014-07-27T12:48:34Z</time>
      </trkpt>
      <trkpt lat="45.71057" lon="6.73237">
        <ele>2225</ele>
        <time>2014-07-27T12:48:38Z</time>
      </trkpt>
      <trkpt lat="45.71059" lon="6.73275">
        <ele>2215.4</ele>
        <time>2014-07-27T12:49:10Z</time>
      </trkpt>
      <trkpt lat="45.71058" lon="6.73287">
        <ele>2214</ele>
        <time>2014-07-27T12:49:24Z</time>
      </trkpt>
      <trkpt lat="45.71048" lon="6.73293">
        <ele>2208</ele>
        <time>2014-07-27T12:49:46Z</time>
      </trkpt>
      <trkpt lat="45.71037" lon="6.73293">
        <ele>2206</ele>
        <time>2014-07-27T12:49:57Z</time>
      </trkpt>
      <trkpt lat="45.71022" lon="6.73296">
        <ele>2200.4</ele>
        <time>2014-07-27T12:50:08Z</time>
      </trkpt>
      <trkpt lat="45.71008" lon="6.7327">
        <ele>2198</ele>
        <time>2014-07-27T12:50:27Z</time>
      </trkpt>
      <trkpt lat="45.71" lon="6.73274">
        <ele>2191</ele>
        <time>2014-07-27T12:50:38Z</time>
      </trkpt>
      <trkpt lat="45.70992" lon="6.73297">
        <ele>2186.4</ele>
        <time>2014-07-27T12:50:46Z</time>
      </trkpt>
      <trkpt lat="45.70973" lon="6.73286">
        <ele>2178.4</ele>
        <time>2014-07-27T12:51:02Z</time>
      </trkpt>
      <trkpt lat="45.70969" lon="6.733">
        <ele>2177.4</ele>
        <time>2014-07-27T12:51:05Z</time>
      </trkpt>
      <trkpt lat="45.70962" lon="6.73326">
        <ele>2175</ele>
        <time>2014-07-27T12:51:13Z</time>
      </trkpt>
      <trkpt lat="45.70947" lon="6.73313">
        <ele>2174</ele>
        <time>2014-07-27T12:51:17Z</time>
      </trkpt>
      <trkpt lat="45.70934" lon="6.73289">
        <ele>2168</ele>
        <time>2014-07-27T12:51:29Z</time>
      </trkpt>
      <trkpt lat="45.70924" lon="6.733">
        <ele>2164.2</ele>
        <time>2014-07-27T12:51:40Z</time>
      </trkpt>
      <trkpt lat="45.70916" lon="6.73324">
        <ele>2161</ele>
        <time>2014-07-27T12:51:47Z</time>
      </trkpt>
      <trkpt lat="45.70918" lon="6.73341">
        <ele>2160</ele>
        <time>2014-07-27T12:51:51Z</time>
      </trkpt>
      <trkpt lat="45.70893" lon="6.73357">
        <ele>2149.4</ele>
        <time>2014-07-27T12:52:04Z</time>
      </trkpt>
      <trkpt lat="45.70866" lon="6.73334">
        <ele>2143</ele>
        <time>2014-07-27T12:52:24Z</time>
      </trkpt>
      <trkpt lat="45.70842" lon="6.73337">
        <ele>2132</ele>
        <time>2014-07-27T12:53:08Z</time>
      </trkpt>
      <trkpt lat="45.7083" lon="6.7334">
        <ele>2128</ele>
        <time>2014-07-27T12:53:27Z</time>
      </trkpt>
      <trkpt lat="45.70823" lon="6.73311">
        <ele>2124</ele>
        <time>2014-07-27T12:53:39Z</time>
      </trkpt>
      <trkpt lat="45.70809" lon="6.73285">
        <ele>2116.4</ele>
        <time>2014-07-27T12:53:49Z</time>
      </trkpt>
      <trkpt lat="45.70798" lon="6.73302">
        <ele>2111</ele>
        <time>2014-07-27T12:54:13Z</time>
      </trkpt>
      <trkpt lat="45.70782" lon="6.73282">
        <ele>2102.4</ele>
        <time>2014-07-27T12:54:45Z</time>
      </trkpt>
      <trkpt lat="45.70753" lon="6.73296">
        <ele>2087</ele>
        <time>2014-07-27T12:56:02Z</time>
      </trkpt>
      <trkpt lat="45.70737" lon="6.73298">
        <ele>2079</ele>
        <time>2014-07-27T12:56:22Z</time>
      </trkpt>
      <trkpt lat="45.70731" lon="6.73311">
        <ele>2077</ele>
        <time>2014-07-27T12:56:32Z</time>
      </trkpt>
      <trkpt lat="45.70724" lon="6.73284">
        <ele>2073</ele>
        <time>2014-07-27T12:56:41Z</time>
      </trkpt>
      <trkpt lat="45.70717" lon="6.73297">
        <ele>2070</ele>
        <time>2014-07-27T12:56:46Z</time>
      </trkpt>
      <trkpt lat="45.70703" lon="6.73317">
        <ele>2066</ele>
        <time>2014-07-27T12:57:04Z</time>
      </trkpt>
      <trkpt lat="45.7069" lon="6.73342">
        <ele>2061</ele>
        <time>2014-07-27T12:57:36Z</time>
      </trkpt>
      <trkpt lat="45.70678" lon="6.73373">
        <ele>2058</ele>
        <time>2014-07-27T12:57:44Z</time>
      </trkpt>
      <trkpt lat="45.70669" lon="6.73384">
        <ele>2056</ele>
        <time>2014-07-27T12:57:48Z</time>
      </trkpt>
      <trkpt lat="45.70659" lon="6.73383">
        <ele>2048.4</ele>
        <time>2014-07-27T12:58:00Z</time>
      </trkpt>
      <trkpt lat="45.70652" lon="6.7336">
        <ele>2044</ele>
        <time>2014-07-27T12:58:29Z</time>
      </trkpt>
      <trkpt lat="45.70622" lon="6.73402">
        <ele>2031.4</ele>
        <time>2014-07-27T12:58:44Z</time>
      </trkpt>
      <trkpt lat="45.70613" lon="6.73436">
        <ele>2026</ele>
        <time>2014-07-27T12:58:52Z</time>
      </trkpt>
      <trkpt lat="45.70618" lon="6.73471">
        <ele>2021.8</ele>
        <time>2014-07-27T12:59:00Z</time>
      </trkpt>
      <trkpt lat="45.706" lon="6.73484">
        <ele>2014</ele>
        <time>2014-07-27T12:59:13Z</time>
      </trkpt>
      <trkpt lat="45.70578" lon="6.7349">
        <ele>2006.4</ele>
        <time>2014-07-27T12:59:24Z</time>
      </trkpt>
      <trkpt lat="45.70567" lon="6.73507">
        <ele>2003</ele>
        <time>2014-07-27T12:59:34Z</time>
      </trkpt>
      <trkpt lat="45.70556" lon="6.73507">
        <ele>1996</ele>
        <time>2014-07-27T12:59:48Z</time>
      </trkpt>
      <trkpt lat="45.70544" lon="6.7355">
        <ele>1993</ele>
        <time>2014-07-27T12:59:59Z</time>
      </trkpt>
      <trkpt lat="45.70544" lon="6.73568">
        <ele>1988.4</ele>
        <time>2014-07-27T13:00:03Z</time>
      </trkpt>
      <trkpt lat="45.70525" lon="6.7358">
        <ele>1983.4</ele>
        <time>2014-07-27T13:00:11Z</time>
      </trkpt>
      <trkpt lat="45.70518" lon="6.73568">
        <ele>1981.4</ele>
        <time>2014-07-27T13:00:15Z</time>
      </trkpt>
      <trkpt lat="45.70516" lon="6.73516">
        <ele>1975</ele>
        <time>2014-07-27T13:00:26Z</time>
      </trkpt>
      <trkpt lat="45.7051" lon="6.73481">
        <ele>1969</ele>
        <time>2014-07-27T13:00:32Z</time>
      </trkpt>
      <trkpt lat="45.70503" lon="6.73433">
        <ele>1962.8</ele>
        <time>2014-07-27T13:00:40Z</time>
      </trkpt>
      <trkpt lat="45.70486" lon="6.73388">
        <ele>1952.4</ele>
        <time>2014-07-27T13:00:53Z</time>
      </trkpt>
      <trkpt lat="45.70474" lon="6.73357">
        <ele>1950.4</ele>
        <time>2014-07-27T13:00:58Z</time>
      </trkpt>
      <trkpt lat="45.70467" lon="6.73308">
        <ele>1943.4</ele>
        <time>2014-07-27T13:01:05Z</time>
      </trkpt>
      <trkpt lat="45.70463" lon="6.73277">
        <ele>1939.4</ele>
        <time>2014-07-27T13:01:09Z</time>
      </trkpt>
      <trkpt lat="45.70455" lon="6.73224">
        <ele>1931.8</ele>
        <time>2014-07-27T13:01:17Z</time>
      </trkpt>
      <trkpt lat="45.70454" lon="6.73192">
        <ele>1926.4</ele>
        <time>2014-07-27T13:01:22Z</time>
      </trkpt>
      <trkpt lat="45.70474" lon="6.73131">
        <ele>1918.4</ele>
        <time>2014-07-27T13:01:30Z</time>
      </trkpt>
      <trkpt lat="45.70475" lon="6.73114">
        <ele>1916.6</ele>
        <time>2014-07-27T13:01:33Z</time>
      </trkpt>
      <trkpt lat="45.70462" lon="6.73064">
        <ele>1912</ele>
        <time>2014-07-27T13:01:41Z</time>
      </trkpt>
      <trkpt lat="45.70444" lon="6.73043">
        <ele>1909.4</ele>
        <time>2014-07-27T13:01:49Z</time>
      </trkpt>
      <trkpt lat="45.70429" lon="6.73052">
        <ele>1903</ele>
        <time>2014-07-27T13:05:46Z</time>
      </trkpt>
      <trkpt lat="45.70408" lon="6.73058">
        <ele>1916.9</ele>
        <time>2014-07-27T13:07:50Z</time>
      </trkpt>
      <trkpt lat="45.70397" lon="6.73069">
        <ele>1915</ele>
        <time>2014-07-27T13:07:53Z</time>
      </trkpt>
      <trkpt lat="45.70362" lon="6.73075">
        <ele>1906</ele>
        <time>2014-07-27T13:08:01Z</time>
      </trkpt>
      <trkpt lat="45.70329" lon="6.7307">
        <ele>1897.4</ele>
        <time>2014-07-27T13:08:08Z</time>
      </trkpt>
      <trkpt lat="45.70294" lon="6.73055">
        <ele>1890.8</ele>
        <time>2014-07-27T13:08:18Z</time>
      </trkpt>
      <trkpt lat="45.70266" lon="6.73056">
        <ele>1884.4</ele>
        <time>2014-07-27T13:08:26Z</time>
      </trkpt>
      <trkpt lat="45.70219" lon="6.73051">
        <ele>1875</ele>
        <time>2014-07-27T13:08:36Z</time>
      </trkpt>
      <trkpt lat="45.70194" lon="6.73041">
        <ele>1863.8</ele>
        <time>2014-07-27T13:08:42Z</time>
      </trkpt>
      <trkpt lat="45.70186" lon="6.73037">
        <ele>1861</ele>
        <time>2014-07-27T13:08:44Z</time>
      </trkpt>
      <trkpt lat="45.70146" lon="6.73022">
        <ele>1848.4</ele>
        <time>2014-07-27T13:08:53Z</time>
      </trkpt>
      <trkpt lat="45.70134" lon="6.73024">
        <ele>1845</ele>
        <time>2014-07-27T13:08:56Z</time>
      </trkpt>
      <trkpt lat="45.70119" lon="6.72999">
        <ele>1842</ele>
        <time>2014-07-27T13:09:02Z</time>
      </trkpt>
      <trkpt lat="45.70096" lon="6.72989">
        <ele>1841</ele>
        <time>2014-07-27T13:09:10Z</time>
      </trkpt>
      <trkpt lat="45.70085" lon="6.7298">
        <ele>1841</ele>
        <time>2014-07-27T13:09:13Z</time>
      </trkpt>
      <trkpt lat="45.70061" lon="6.72945">
        <ele>1841</ele>
        <time>2014-07-27T13:09:19Z</time>
      </trkpt>
      <trkpt lat="45.70045" lon="6.72916">
        <ele>1837</ele>
        <time>2014-07-27T13:09:23Z</time>
      </trkpt>
      <trkpt lat="45.70016" lon="6.72867">
        <ele>1832</ele>
        <time>2014-07-27T13:09:29Z</time>
      </trkpt>
      <trkpt lat="45.69996" lon="6.72832">
        <ele>1822.4</ele>
        <time>2014-07-27T13:09:33Z</time>
      </trkpt>
      <trkpt lat="45.6999" lon="6.72816">
        <ele>1823</ele>
        <time>2014-07-27T13:09:35Z</time>
      </trkpt>
      <trkpt lat="45.69991" lon="6.72782">
        <ele>1820.4</ele>
        <time>2014-07-27T13:09:39Z</time>
      </trkpt>
      <trkpt lat="45.69988" lon="6.72761">
        <ele>1817</ele>
        <time>2014-07-27T13:09:44Z</time>
      </trkpt>
      <trkpt lat="45.69976" lon="6.72762">
        <ele>1816.4</ele>
        <time>2014-07-27T13:09:46Z</time>
      </trkpt>
      <trkpt lat="45.69943" lon="6.72746">
        <ele>1813</ele>
        <time>2014-07-27T13:09:52Z</time>
      </trkpt>
      <trkpt lat="45.69905" lon="6.72739">
        <ele>1809</ele>
        <time>2014-07-27T13:09:58Z</time>
      </trkpt>
      <trkpt lat="45.69895" lon="6.7273">
        <ele>1805.9</ele>
        <time>2014-07-27T13:10:00Z</time>
      </trkpt>
      <trkpt lat="45.69885" lon="6.72701">
        <ele>1806</ele>
        <time>2014-07-27T13:10:06Z</time>
      </trkpt>
      <trkpt lat="45.69879" lon="6.72673">
        <ele>1807</ele>
        <time>2014-07-27T13:10:14Z</time>
      </trkpt>
      <trkpt lat="45.69867" lon="6.72644">
        <ele>1809</ele>
        <time>2014-07-27T13:10:22Z</time>
      </trkpt>
      <trkpt lat="45.69861" lon="6.72618">
        <ele>1809</ele>
        <time>2014-07-27T13:10:28Z</time>
      </trkpt>
      <trkpt lat="45.69863" lon="6.72598">
        <ele>1810</ele>
        <time>2014-07-27T13:10:32Z</time>
      </trkpt>
      <trkpt lat="45.69857" lon="6.72539">
        <ele>1810</ele>
        <time>2014-07-27T13:10:44Z</time>
      </trkpt>
      <trkpt lat="45.69848" lon="6.72529">
        <ele>1810</ele>
        <time>2014-07-27T13:10:51Z</time>
      </trkpt>
      <trkpt lat="45.69818" lon="6.72507">
        <ele>1811</ele>
        <time>2014-07-27T13:11:05Z</time>
      </trkpt>
      <trkpt lat="45.69813" lon="6.72484">
        <ele>1808</ele>
        <time>2014-07-27T13:12:22Z</time>
      </trkpt>
      <trkpt lat="45.69804" lon="6.72467">
        <ele>1804</ele>
        <time>2014-07-27T13:14:23Z</time>
      </trkpt>
      <trkpt lat="45.69778" lon="6.72431">
        <ele>1804</ele>
        <time>2014-07-27T13:14:36Z</time>
      </trkpt>
      <trkpt lat="45.6976" lon="6.72411">
        <ele>1807</ele>
        <time>2014-07-27T13:14:44Z</time>
      </trkpt>
      <trkpt lat="45.69747" lon="6.72388">
        <ele>1809</ele>
        <time>2014-07-27T13:14:51Z</time>
      </trkpt>
      <trkpt lat="45.69742" lon="6.72363">
        <ele>1809</ele>
        <time>2014-07-27T13:14:57Z</time>
      </trkpt>
      <trkpt lat="45.69749" lon="6.72327">
        <ele>1809</ele>
        <time>2014-07-27T13:15:06Z</time>
      </trkpt>
      <trkpt lat="45.69762" lon="6.72295">
        <ele>1808</ele>
        <time>2014-07-27T13:15:14Z</time>
      </trkpt>
      <trkpt lat="45.69771" lon="6.72272">
        <ele>1807.4</ele>
        <time>2014-07-27T13:15:20Z</time>
      </trkpt>
      <trkpt lat="45.69774" lon="6.7223">
        <ele>1807.6</ele>
        <time>2014-07-27T13:15:30Z</time>
      </trkpt>
      <trkpt lat="45.69764" lon="6.72199">
        <ele>1807</ele>
        <time>2014-07-27T13:15:38Z</time>
      </trkpt>
      <trkpt lat="45.69741" lon="6.72171">
        <ele>1808</ele>
        <time>2014-07-27T13:15:48Z</time>
      </trkpt>
      <trkpt lat="45.6973" lon="6.72137">
        <ele>1810</ele>
        <time>2014-07-27T13:15:57Z</time>
      </trkpt>
      <trkpt lat="45.69731" lon="6.72117">
        <ele>1812</ele>
        <time>2014-07-27T13:16:02Z</time>
      </trkpt>
      <trkpt lat="45.69735" lon="6.72087">
        <ele>1812.6</ele>
        <time>2014-07-27T13:16:10Z</time>
      </trkpt>
      <trkpt lat="45.6974" lon="6.72049">
        <ele>1813</ele>
        <time>2014-07-27T13:16:19Z</time>
      </trkpt>
      <trkpt lat="45.69744" lon="6.72002">
        <ele>1813.6</ele>
        <time>2014-07-27T13:16:30Z</time>
      </trkpt>
      <trkpt lat="45.69743" lon="6.71974">
        <ele>1814</ele>
        <time>2014-07-27T13:16:36Z</time>
      </trkpt>
      <trkpt lat="45.69729" lon="6.71935">
        <ele>1816</ele>
        <time>2014-07-27T13:16:45Z</time>
      </trkpt>
      <trkpt lat="45.69717" lon="6.71924">
        <ele>1816</ele>
        <time>2014-07-27T13:16:49Z</time>
      </trkpt>
      <trkpt lat="45.69688" lon="6.71909">
        <ele>1817</ele>
        <time>2014-07-27T13:16:57Z</time>
      </trkpt>
      <trkpt lat="45.69674" lon="6.71899">
        <ele>1821</ele>
        <time>2014-07-27T13:17:01Z</time>
      </trkpt>
      <trkpt lat="45.69645" lon="6.7188">
        <ele>1822</ele>
        <time>2014-07-27T13:17:09Z</time>
      </trkpt>
      <trkpt lat="45.6961" lon="6.71859">
        <ele>1822</ele>
        <time>2014-07-27T13:17:18Z</time>
      </trkpt>
      <trkpt lat="45.69599" lon="6.71851">
        <ele>1824</ele>
        <time>2014-07-27T13:17:21Z</time>
      </trkpt>
      <trkpt lat="45.69583" lon="6.71826">
        <ele>1824</ele>
        <time>2014-07-27T13:17:27Z</time>
      </trkpt>
      <trkpt lat="45.69575" lon="6.71789">
        <ele>1827</ele>
        <time>2014-07-27T13:17:34Z</time>
      </trkpt>
      <trkpt lat="45.69572" lon="6.71753">
        <ele>1827.6</ele>
        <time>2014-07-27T13:17:40Z</time>
      </trkpt>
      <trkpt lat="45.69578" lon="6.71711">
        <ele>1828</ele>
        <time>2014-07-27T13:17:48Z</time>
      </trkpt>
      <trkpt lat="45.69589" lon="6.71681">
        <ele>1831</ele>
        <time>2014-07-27T13:17:54Z</time>
      </trkpt>
      <trkpt lat="45.69589" lon="6.71658">
        <ele>1832</ele>
        <time>2014-07-27T13:17:58Z</time>
      </trkpt>
      <trkpt lat="45.6958" lon="6.71638">
        <ele>1833</ele>
        <time>2014-07-27T13:18:02Z</time>
      </trkpt>
      <trkpt lat="45.69556" lon="6.71625">
        <ele>1833</ele>
        <time>2014-07-27T13:18:08Z</time>
      </trkpt>
      <trkpt lat="45.69544" lon="6.71627">
        <ele>1832</ele>
        <time>2014-07-27T13:18:11Z</time>
      </trkpt>
      <trkpt lat="45.69522" lon="6.71638">
        <ele>1832</ele>
        <time>2014-07-27T13:18:17Z</time>
      </trkpt>
      <trkpt lat="45.69485" lon="6.71658">
        <ele>1834</ele>
        <time>2014-07-27T13:18:27Z</time>
      </trkpt>
      <trkpt lat="45.69466" lon="6.71657">
        <ele>1836</ele>
        <time>2014-07-27T13:18:31Z</time>
      </trkpt>
      <trkpt lat="45.69451" lon="6.71643">
        <ele>1837.8</ele>
        <time>2014-07-27T13:18:35Z</time>
      </trkpt>
      <trkpt lat="45.6944" lon="6.71624">
        <ele>1839</ele>
        <time>2014-07-27T13:18:39Z</time>
      </trkpt>
      <trkpt lat="45.69434" lon="6.71603">
        <ele>1842</ele>
        <time>2014-07-27T13:18:43Z</time>
      </trkpt>
      <trkpt lat="45.69438" lon="6.71567">
        <ele>1842</ele>
        <time>2014-07-27T13:18:51Z</time>
      </trkpt>
      <trkpt lat="45.69445" lon="6.71543">
        <ele>1842</ele>
        <time>2014-07-27T13:18:57Z</time>
      </trkpt>
      <trkpt lat="45.6945" lon="6.71508">
        <ele>1842</ele>
        <time>2014-07-27T13:19:05Z</time>
      </trkpt>
      <trkpt lat="45.69449" lon="6.71481">
        <ele>1843</ele>
        <time>2014-07-27T13:19:11Z</time>
      </trkpt>
      <trkpt lat="45.69445" lon="6.71446">
        <ele>1843</ele>
        <time>2014-07-27T13:19:19Z</time>
      </trkpt>
      <trkpt lat="45.69439" lon="6.71422">
        <ele>1845</ele>
        <time>2014-07-27T13:19:25Z</time>
      </trkpt>
      <trkpt lat="45.69429" lon="6.71395">
        <ele>1847</ele>
        <time>2014-07-27T13:19:32Z</time>
      </trkpt>
      <trkpt lat="45.69424" lon="6.71379">
        <ele>1846</ele>
        <time>2014-07-27T13:19:36Z</time>
      </trkpt>
      <trkpt lat="45.69413" lon="6.71348">
        <ele>1848</ele>
        <time>2014-07-27T13:19:44Z</time>
      </trkpt>
      <trkpt lat="45.69402" lon="6.71315">
        <ele>1850</ele>
        <time>2014-07-27T13:19:52Z</time>
      </trkpt>
      <trkpt lat="45.69394" lon="6.71271">
        <ele>1852</ele>
        <time>2014-07-27T13:20:02Z</time>
      </trkpt>
      <trkpt lat="45.6939" lon="6.71243">
        <ele>1852</ele>
        <time>2014-07-27T13:20:08Z</time>
      </trkpt>
      <trkpt lat="45.69386" lon="6.71205">
        <ele>1854</ele>
        <time>2014-07-27T13:20:16Z</time>
      </trkpt>
      <trkpt lat="45.69384" lon="6.71186">
        <ele>1854.2</ele>
        <time>2014-07-27T13:20:20Z</time>
      </trkpt>
      <trkpt lat="45.6938" lon="6.71158">
        <ele>1855</ele>
        <time>2014-07-27T13:20:26Z</time>
      </trkpt>
      <trkpt lat="45.69376" lon="6.7112">
        <ele>1857</ele>
        <time>2014-07-27T13:20:34Z</time>
      </trkpt>
      <trkpt lat="45.69374" lon="6.71101">
        <ele>1857</ele>
        <time>2014-07-27T13:20:38Z</time>
      </trkpt>
      <trkpt lat="45.6937" lon="6.71073">
        <ele>1859</ele>
        <time>2014-07-27T13:20:44Z</time>
      </trkpt>
      <trkpt lat="45.69364" lon="6.71023">
        <ele>1863</ele>
        <time>2014-07-27T13:20:56Z</time>
      </trkpt>
      <trkpt lat="45.6936" lon="6.70987">
        <ele>1863</ele>
        <time>2014-07-27T13:21:05Z</time>
      </trkpt>
      <trkpt lat="45.69354" lon="6.70944">
        <ele>1865</ele>
        <time>2014-07-27T13:21:17Z</time>
      </trkpt>
      <trkpt lat="45.69351" lon="6.70907">
        <ele>1868</ele>
        <time>2014-07-27T13:21:27Z</time>
      </trkpt>
      <trkpt lat="45.69349" lon="6.70892">
        <ele>1869</ele>
        <time>2014-07-27T13:21:31Z</time>
      </trkpt>
      <trkpt lat="45.69344" lon="6.70844">
        <ele>1871</ele>
        <time>2014-07-27T13:21:44Z</time>
      </trkpt>
      <trkpt lat="45.6934" lon="6.70812">
        <ele>1874</ele>
        <time>2014-07-27T13:21:52Z</time>
      </trkpt>
      <trkpt lat="45.69335" lon="6.70775">
        <ele>1877</ele>
        <time>2014-07-27T13:22:02Z</time>
      </trkpt>
      <trkpt lat="45.69333" lon="6.7076">
        <ele>1878</ele>
        <time>2014-07-27T13:22:06Z</time>
      </trkpt>
      <trkpt lat="45.69329" lon="6.70725">
        <ele>1878</ele>
        <time>2014-07-27T13:22:16Z</time>
      </trkpt>
      <trkpt lat="45.69327" lon="6.70713">
        <ele>1878</ele>
        <time>2014-07-27T13:22:19Z</time>
      </trkpt>
      <trkpt lat="45.69323" lon="6.70678">
        <ele>1880</ele>
        <time>2014-07-27T13:22:28Z</time>
      </trkpt>
      <trkpt lat="45.69321" lon="6.70663">
        <ele>1882</ele>
        <time>2014-07-27T13:22:32Z</time>
      </trkpt>
      <trkpt lat="45.69317" lon="6.70629">
        <ele>1883.2</ele>
        <time>2014-07-27T13:22:40Z</time>
      </trkpt>
      <trkpt lat="45.69314" lon="6.70603">
        <ele>1884</ele>
        <time>2014-07-27T13:22:46Z</time>
      </trkpt>
      <trkpt lat="45.6931" lon="6.70564">
        <ele>1886</ele>
        <time>2014-07-27T13:22:55Z</time>
      </trkpt>
      <trkpt lat="45.69306" lon="6.7053">
        <ele>1888</ele>
        <time>2014-07-27T13:23:03Z</time>
      </trkpt>
      <trkpt lat="45.69301" lon="6.70492">
        <ele>1888</ele>
        <time>2014-07-27T13:23:11Z</time>
      </trkpt>
      <trkpt lat="45.69296" lon="6.70453">
        <ele>1888</ele>
        <time>2014-07-27T13:23:19Z</time>
      </trkpt>
      <trkpt lat="45.6929" lon="6.70425">
        <ele>1890</ele>
        <time>2014-07-27T13:23:25Z</time>
      </trkpt>
      <trkpt lat="45.69281" lon="6.7039">
        <ele>1891</ele>
        <time>2014-07-27T13:23:33Z</time>
      </trkpt>
      <trkpt lat="45.69274" lon="6.70362">
        <ele>1891</ele>
        <time>2014-07-27T13:23:39Z</time>
      </trkpt>
      <trkpt lat="45.69266" lon="6.70334">
        <ele>1893</ele>
        <time>2014-07-27T13:23:45Z</time>
      </trkpt>
      <trkpt lat="45.69257" lon="6.70305">
        <ele>1895</ele>
        <time>2014-07-27T13:23:51Z</time>
      </trkpt>
      <trkpt lat="45.69243" lon="6.70262">
        <ele>1899</ele>
        <time>2014-07-27T13:24:01Z</time>
      </trkpt>
      <trkpt lat="45.69229" lon="6.70221">
        <ele>1903</ele>
        <time>2014-07-27T13:24:13Z</time>
      </trkpt>
      <trkpt lat="45.69222" lon="6.702">
        <ele>1903</ele>
        <time>2014-07-27T13:24:19Z</time>
      </trkpt>
      <trkpt lat="45.69215" lon="6.70158">
        <ele>1906</ele>
        <time>2014-07-27T13:24:31Z</time>
      </trkpt>
      <trkpt lat="45.69213" lon="6.70129">
        <ele>1906</ele>
        <time>2014-07-27T13:24:39Z</time>
      </trkpt>
      <trkpt lat="45.69215" lon="6.70101">
        <ele>1912</ele>
        <time>2014-07-27T13:24:47Z</time>
      </trkpt>
      <trkpt lat="45.69219" lon="6.70075">
        <ele>1913.6</ele>
        <time>2014-07-27T13:24:55Z</time>
      </trkpt>
      <trkpt lat="45.69226" lon="6.70046">
        <ele>1914</ele>
        <time>2014-07-27T13:25:05Z</time>
      </trkpt>
      <trkpt lat="45.69234" lon="6.70028">
        <ele>1915</ele>
        <time>2014-07-27T13:25:11Z</time>
      </trkpt>
      <trkpt lat="45.69248" lon="6.69995">
        <ele>1918</ele>
        <time>2014-07-27T13:25:21Z</time>
      </trkpt>
      <trkpt lat="45.69259" lon="6.69968">
        <ele>1918</ele>
        <time>2014-07-27T13:25:29Z</time>
      </trkpt>
      <trkpt lat="45.69276" lon="6.6993">
        <ele>1922</ele>
        <time>2014-07-27T13:25:41Z</time>
      </trkpt>
      <trkpt lat="45.6929" lon="6.699">
        <ele>1923.2</ele>
        <time>2014-07-27T13:25:50Z</time>
      </trkpt>
      <trkpt lat="45.69307" lon="6.6986">
        <ele>1926</ele>
        <time>2014-07-27T13:26:02Z</time>
      </trkpt>
      <trkpt lat="45.69323" lon="6.69821">
        <ele>1928</ele>
        <time>2014-07-27T13:26:14Z</time>
      </trkpt>
      <trkpt lat="45.69341" lon="6.69781">
        <ele>1932.2</ele>
        <time>2014-07-27T13:26:25Z</time>
      </trkpt>
      <trkpt lat="45.69353" lon="6.69743">
        <ele>1934.6</ele>
        <time>2014-07-27T13:26:35Z</time>
      </trkpt>
      <trkpt lat="45.69368" lon="6.69692">
        <ele>1935</ele>
        <time>2014-07-27T13:26:48Z</time>
      </trkpt>
      <trkpt lat="45.69376" lon="6.69656">
        <ele>1939</ele>
        <time>2014-07-27T13:26:57Z</time>
      </trkpt>
      <trkpt lat="45.69382" lon="6.69618">
        <ele>1940</ele>
        <time>2014-07-27T13:27:06Z</time>
      </trkpt>
      <trkpt lat="45.69385" lon="6.69578">
        <ele>1942</ele>
        <time>2014-07-27T13:27:15Z</time>
      </trkpt>
      <trkpt lat="45.69387" lon="6.69556">
        <ele>1943.2</ele>
        <time>2014-07-27T13:27:20Z</time>
      </trkpt>
      <trkpt lat="45.69391" lon="6.69526">
        <ele>1944</ele>
        <time>2014-07-27T13:27:27Z</time>
      </trkpt>
      <trkpt lat="45.69391" lon="6.695">
        <ele>1948</ele>
        <time>2014-07-27T13:27:33Z</time>
      </trkpt>
      <trkpt lat="45.69389" lon="6.69458">
        <ele>1950</ele>
        <time>2014-07-27T13:27:43Z</time>
      </trkpt>
      <trkpt lat="45.69387" lon="6.69435">
        <ele>1950</ele>
        <time>2014-07-27T13:27:49Z</time>
      </trkpt>
      <trkpt lat="45.69381" lon="6.69404">
        <ele>1954</ele>
        <time>2014-07-27T13:27:58Z</time>
      </trkpt>
      <trkpt lat="45.69375" lon="6.69384">
        <ele>1955</ele>
        <time>2014-07-27T13:28:04Z</time>
      </trkpt>
      <trkpt lat="45.69354" lon="6.69337">
        <ele>1957</ele>
        <time>2014-07-27T13:28:18Z</time>
      </trkpt>
      <trkpt lat="45.69332" lon="6.69296">
        <ele>1958</ele>
        <time>2014-07-27T13:28:29Z</time>
      </trkpt>
      <trkpt lat="45.69309" lon="6.69264">
        <ele>1960</ele>
        <time>2014-07-27T13:28:39Z</time>
      </trkpt>
      <trkpt lat="45.69293" lon="6.69252">
        <ele>1962</ele>
        <time>2014-07-27T13:28:45Z</time>
      </trkpt>
      <trkpt lat="45.69261" lon="6.69248">
        <ele>1966</ele>
        <time>2014-07-27T13:28:59Z</time>
      </trkpt>
      <trkpt lat="45.69224" lon="6.69244">
        <ele>1970</ele>
        <time>2014-07-27T13:29:08Z</time>
      </trkpt>
      <trkpt lat="45.69208" lon="6.69242">
        <ele>1971</ele>
        <time>2014-07-27T13:29:12Z</time>
      </trkpt>
      <trkpt lat="45.69186" lon="6.69231">
        <ele>1973</ele>
        <time>2014-07-27T13:29:18Z</time>
      </trkpt>
      <trkpt lat="45.69171" lon="6.69215">
        <ele>1974</ele>
        <time>2014-07-27T13:29:23Z</time>
      </trkpt>
      <trkpt lat="45.69162" lon="6.69198">
        <ele>1976</ele>
        <time>2014-07-27T13:29:27Z</time>
      </trkpt>
      <trkpt lat="45.6915" lon="6.69159">
        <ele>1979</ele>
        <time>2014-07-27T13:29:35Z</time>
      </trkpt>
      <trkpt lat="45.6914" lon="6.69115">
        <ele>1980</ele>
        <time>2014-07-27T13:29:44Z</time>
      </trkpt>
      <trkpt lat="45.69135" lon="6.69076">
        <ele>1981</ele>
        <time>2014-07-27T13:29:52Z</time>
      </trkpt>
      <trkpt lat="45.6913" lon="6.69043">
        <ele>1982</ele>
        <time>2014-07-27T13:30:01Z</time>
      </trkpt>
      <trkpt lat="45.69125" lon="6.68999">
        <ele>1982</ele>
        <time>2014-07-27T13:30:12Z</time>
      </trkpt>
      <trkpt lat="45.69122" lon="6.68977">
        <ele>1979</ele>
        <time>2014-07-27T13:39:11Z</time>
      </trkpt>
      <trkpt lat="45.69127" lon="6.68935">
        <ele>1979</ele>
        <time>2014-07-27T13:39:24Z</time>
      </trkpt>
      <trkpt lat="45.69137" lon="6.689">
        <ele>1978</ele>
        <time>2014-07-27T13:39:31Z</time>
      </trkpt>
      <trkpt lat="45.69137" lon="6.68875">
        <ele>1978</ele>
        <time>2014-07-27T13:39:35Z</time>
      </trkpt>
      <trkpt lat="45.69133" lon="6.68851">
        <ele>1978</ele>
        <time>2014-07-27T13:39:39Z</time>
      </trkpt>
      <trkpt lat="45.69135" lon="6.68826">
        <ele>1978</ele>
        <time>2014-07-27T13:39:43Z</time>
      </trkpt>
      <trkpt lat="45.69144" lon="6.68802">
        <ele>1978</ele>
        <time>2014-07-27T13:39:47Z</time>
      </trkpt>
      <trkpt lat="45.69149" lon="6.68775">
        <ele>1978</ele>
        <time>2014-07-27T13:39:51Z</time>
      </trkpt>
      <trkpt lat="45.69145" lon="6.68749">
        <ele>1978</ele>
        <time>2014-07-27T13:39:55Z</time>
      </trkpt>
      <trkpt lat="45.69133" lon="6.68731">
        <ele>1978</ele>
        <time>2014-07-27T13:39:59Z</time>
      </trkpt>
      <trkpt lat="45.69114" lon="6.6871">
        <ele>1976</ele>
        <time>2014-07-27T13:40:04Z</time>
      </trkpt>
      <trkpt lat="45.69107" lon="6.68688">
        <ele>1976</ele>
        <time>2014-07-27T13:40:08Z</time>
      </trkpt>
      <trkpt lat="45.69107" lon="6.68659">
        <ele>1976</ele>
        <time>2014-07-27T13:40:15Z</time>
      </trkpt>
      <trkpt lat="45.69111" lon="6.68615">
        <ele>1973</ele>
        <time>2014-07-27T13:40:24Z</time>
      </trkpt>
      <trkpt lat="45.69112" lon="6.6858">
        <ele>1973</ele>
        <time>2014-07-27T13:40:29Z</time>
      </trkpt>
      <trkpt lat="45.69115" lon="6.68538">
        <ele>1970.4</ele>
        <time>2014-07-27T13:40:35Z</time>
      </trkpt>
      <trkpt lat="45.69116" lon="6.68523">
        <ele>1970</ele>
        <time>2014-07-27T13:40:37Z</time>
      </trkpt>
      <trkpt lat="45.69126" lon="6.68481">
        <ele>1969</ele>
        <time>2014-07-27T13:40:44Z</time>
      </trkpt>
      <trkpt lat="45.69146" lon="6.68453">
        <ele>1966</ele>
        <time>2014-07-27T13:41:05Z</time>
      </trkpt>
      <trkpt lat="45.69157" lon="6.6843">
        <ele>1965</ele>
        <time>2014-07-27T13:41:19Z</time>
      </trkpt>
      <trkpt lat="45.69154" lon="6.68387">
        <ele>1964</ele>
        <time>2014-07-27T13:41:26Z</time>
      </trkpt>
      <trkpt lat="45.69133" lon="6.68359">
        <ele>1963</ele>
        <time>2014-07-27T13:41:31Z</time>
      </trkpt>
      <trkpt lat="45.69122" lon="6.68341">
        <ele>1963</ele>
        <time>2014-07-27T13:41:34Z</time>
      </trkpt>
      <trkpt lat="45.69114" lon="6.68299">
        <ele>1960</ele>
        <time>2014-07-27T13:41:42Z</time>
      </trkpt>
      <trkpt lat="45.69107" lon="6.6827">
        <ele>1959</ele>
        <time>2014-07-27T13:41:49Z</time>
      </trkpt>
      <trkpt lat="45.69107" lon="6.68236">
        <ele>1955</ele>
        <time>2014-07-27T13:42:02Z</time>
      </trkpt>
      <trkpt lat="45.69125" lon="6.68235">
        <ele>1955</ele>
        <time>2014-07-27T13:42:12Z</time>
      </trkpt>
      <trkpt lat="45.69146" lon="6.68244">
        <ele>1955</ele>
        <time>2014-07-27T13:42:24Z</time>
      </trkpt>
      <trkpt lat="45.69161" lon="6.68224">
        <ele>1956</ele>
        <time>2014-07-27T13:42:37Z</time>
      </trkpt>
      <trkpt lat="45.6916" lon="6.682">
        <ele>1955</ele>
        <time>2014-07-27T13:42:44Z</time>
      </trkpt>
      <trkpt lat="45.69162" lon="6.68157">
        <ele>1949</ele>
        <time>2014-07-27T13:43:01Z</time>
      </trkpt>
      <trkpt lat="45.69183" lon="6.68135">
        <ele>1948</ele>
        <time>2014-07-27T13:43:11Z</time>
      </trkpt>
      <trkpt lat="45.69193" lon="6.68115">
        <ele>1943</ele>
        <time>2014-07-27T13:43:49Z</time>
      </trkpt>
      <trkpt lat="45.69211" lon="6.68134">
        <ele>1934</ele>
        <time>2014-07-27T13:44:14Z</time>
      </trkpt>
      <trkpt lat="45.69231" lon="6.68145">
        <ele>1928</ele>
        <time>2014-07-27T13:44:48Z</time>
      </trkpt>
      <trkpt lat="45.6925" lon="6.68172">
        <ele>1928</ele>
        <time>2014-07-27T13:44:58Z</time>
      </trkpt>
      <trkpt lat="45.69261" lon="6.68183">
        <ele>1927</ele>
        <time>2014-07-27T13:45:02Z</time>
      </trkpt>
      <trkpt lat="45.69291" lon="6.68203">
        <ele>1926.4</ele>
        <time>2014-07-27T13:45:10Z</time>
      </trkpt>
      <trkpt lat="45.69322" lon="6.6822">
        <ele>1926</ele>
        <time>2014-07-27T13:45:16Z</time>
      </trkpt>
      <trkpt lat="45.6936" lon="6.68242">
        <ele>1925</ele>
        <time>2014-07-27T13:45:24Z</time>
      </trkpt>
      <trkpt lat="45.6939" lon="6.68268">
        <ele>1924.4</ele>
        <time>2014-07-27T13:45:30Z</time>
      </trkpt>
      <trkpt lat="45.69406" lon="6.68278">
        <ele>1924</ele>
        <time>2014-07-27T13:45:33Z</time>
      </trkpt>
      <trkpt lat="45.69427" lon="6.68268">
        <ele>1924</ele>
        <time>2014-07-27T13:45:38Z</time>
      </trkpt>
      <trkpt lat="45.69419" lon="6.68233">
        <ele>1921</ele>
        <time>2014-07-27T13:45:43Z</time>
      </trkpt>
      <trkpt lat="45.69395" lon="6.68216">
        <ele>1918</ele>
        <time>2014-07-27T13:45:47Z</time>
      </trkpt>
      <trkpt lat="45.69365" lon="6.68187">
        <ele>1917</ele>
        <time>2014-07-27T13:45:52Z</time>
      </trkpt>
      <trkpt lat="45.69341" lon="6.68157">
        <ele>1915</ele>
        <time>2014-07-27T13:45:56Z</time>
      </trkpt>
      <trkpt lat="45.69331" lon="6.68125">
        <ele>1915</ele>
        <time>2014-07-27T13:45:59Z</time>
      </trkpt>
      <trkpt lat="45.69323" lon="6.68063">
        <ele>1909</ele>
        <time>2014-07-27T13:46:04Z</time>
      </trkpt>
      <trkpt lat="45.69318" lon="6.6804">
        <ele>1907.4</ele>
        <time>2014-07-27T13:46:06Z</time>
      </trkpt>
      <trkpt lat="45.69308" lon="6.67993">
        <ele>1903.4</ele>
        <time>2014-07-27T13:46:10Z</time>
      </trkpt>
      <trkpt lat="45.693" lon="6.67971">
        <ele>1903</ele>
        <time>2014-07-27T13:46:12Z</time>
      </trkpt>
      <trkpt lat="45.69276" lon="6.67942">
        <ele>1899.4</ele>
        <time>2014-07-27T13:46:16Z</time>
      </trkpt>
      <trkpt lat="45.69243" lon="6.67926">
        <ele>1897</ele>
        <time>2014-07-27T13:46:20Z</time>
      </trkpt>
      <trkpt lat="45.69227" lon="6.67915">
        <ele>1896.4</ele>
        <time>2014-07-27T13:46:22Z</time>
      </trkpt>
      <trkpt lat="45.69215" lon="6.67896">
        <ele>1895</ele>
        <time>2014-07-27T13:46:24Z</time>
      </trkpt>
      <trkpt lat="45.69189" lon="6.67837">
        <ele>1892.4</ele>
        <time>2014-07-27T13:46:29Z</time>
      </trkpt>
      <trkpt lat="45.69165" lon="6.67797">
        <ele>1888.4</ele>
        <time>2014-07-27T13:46:33Z</time>
      </trkpt>
      <trkpt lat="45.69148" lon="6.67768">
        <ele>1885.4</ele>
        <time>2014-07-27T13:46:37Z</time>
      </trkpt>
      <trkpt lat="45.69131" lon="6.67742">
        <ele>1883.4</ele>
        <time>2014-07-27T13:46:41Z</time>
      </trkpt>
      <trkpt lat="45.69115" lon="6.67705">
        <ele>1883</ele>
        <time>2014-07-27T13:46:46Z</time>
      </trkpt>
      <trkpt lat="45.6911" lon="6.67669">
        <ele>1882</ele>
        <time>2014-07-27T13:46:50Z</time>
      </trkpt>
      <trkpt lat="45.69107" lon="6.6765">
        <ele>1882</ele>
        <time>2014-07-27T13:46:52Z</time>
      </trkpt>
      <trkpt lat="45.69099" lon="6.67607">
        <ele>1882</ele>
        <time>2014-07-27T13:46:56Z</time>
      </trkpt>
      <trkpt lat="45.69092" lon="6.67573">
        <ele>1882</ele>
        <time>2014-07-27T13:46:59Z</time>
      </trkpt>
      <trkpt lat="45.69087" lon="6.67511">
        <ele>1873.4</ele>
        <time>2014-07-27T13:47:04Z</time>
      </trkpt>
      <trkpt lat="45.69092" lon="6.67457">
        <ele>1871.4</ele>
        <time>2014-07-27T13:47:08Z</time>
      </trkpt>
      <trkpt lat="45.69098" lon="6.67432">
        <ele>1869.4</ele>
        <time>2014-07-27T13:47:10Z</time>
      </trkpt>
      <trkpt lat="45.69111" lon="6.67402">
        <ele>1867.4</ele>
        <time>2014-07-27T13:47:13Z</time>
      </trkpt>
      <trkpt lat="45.69115" lon="6.67384">
        <ele>1865.4</ele>
        <time>2014-07-27T13:47:15Z</time>
      </trkpt>
      <trkpt lat="45.69117" lon="6.67343">
        <ele>1864</ele>
        <time>2014-07-27T13:47:19Z</time>
      </trkpt>
      <trkpt lat="45.69126" lon="6.67313">
        <ele>1862</ele>
        <time>2014-07-27T13:47:22Z</time>
      </trkpt>
      <trkpt lat="45.69138" lon="6.67299">
        <ele>1860.4</ele>
        <time>2014-07-27T13:47:24Z</time>
      </trkpt>
      <trkpt lat="45.69167" lon="6.6728">
        <ele>1856</ele>
        <time>2014-07-27T13:47:28Z</time>
      </trkpt>
      <trkpt lat="45.69186" lon="6.67259">
        <ele>1856</ele>
        <time>2014-07-27T13:47:31Z</time>
      </trkpt>
      <trkpt lat="45.69206" lon="6.67216">
        <ele>1854</ele>
        <time>2014-07-27T13:47:35Z</time>
      </trkpt>
      <trkpt lat="45.69217" lon="6.67194">
        <ele>1852.4</ele>
        <time>2014-07-27T13:47:37Z</time>
      </trkpt>
      <trkpt lat="45.69237" lon="6.67165">
        <ele>1850</ele>
        <time>2014-07-27T13:47:40Z</time>
      </trkpt>
      <trkpt lat="45.69248" lon="6.67147">
        <ele>1848</ele>
        <time>2014-07-27T13:47:42Z</time>
      </trkpt>
      <trkpt lat="45.69254" lon="6.67125">
        <ele>1848</ele>
        <time>2014-07-27T13:47:44Z</time>
      </trkpt>
      <trkpt lat="45.6926" lon="6.67091">
        <ele>1846.4</ele>
        <time>2014-07-27T13:47:47Z</time>
      </trkpt>
      <trkpt lat="45.69268" lon="6.67071">
        <ele>1844.4</ele>
        <time>2014-07-27T13:47:49Z</time>
      </trkpt>
      <trkpt lat="45.69283" lon="6.67046">
        <ele>1842</ele>
        <time>2014-07-27T13:47:52Z</time>
      </trkpt>
      <trkpt lat="45.69299" lon="6.67015">
        <ele>1839.4</ele>
        <time>2014-07-27T13:47:56Z</time>
      </trkpt>
      <trkpt lat="45.69307" lon="6.66977">
        <ele>1837</ele>
        <time>2014-07-27T13:48:01Z</time>
      </trkpt>
      <trkpt lat="45.69317" lon="6.66938">
        <ele>1835</ele>
        <time>2014-07-27T13:48:07Z</time>
      </trkpt>
      <trkpt lat="45.69321" lon="6.66907">
        <ele>1835</ele>
        <time>2014-07-27T13:50:19Z</time>
      </trkpt>
      <trkpt lat="45.69325" lon="6.66889">
        <ele>1835</ele>
        <time>2014-07-27T13:50:22Z</time>
      </trkpt>
      <trkpt lat="45.69334" lon="6.66853">
        <ele>1835</ele>
        <time>2014-07-27T13:50:27Z</time>
      </trkpt>
      <trkpt lat="45.69338" lon="6.66838">
        <ele>1835</ele>
        <time>2014-07-27T13:50:29Z</time>
      </trkpt>
      <trkpt lat="45.69345" lon="6.66809">
        <ele>1833</ele>
        <time>2014-07-27T13:50:33Z</time>
      </trkpt>
      <trkpt lat="45.69355" lon="6.66771">
        <ele>1830</ele>
        <time>2014-07-27T13:50:41Z</time>
      </trkpt>
      <trkpt lat="45.69356" lon="6.66762">
        <ele>1829.4</ele>
        <time>2014-07-27T13:50:45Z</time>
      </trkpt>
      <trkpt lat="45.69358" lon="6.66725">
        <ele>1827</ele>
        <time>2014-07-27T13:51:03Z</time>
      </trkpt>
      <trkpt lat="45.69356" lon="6.66707">
        <ele>1827</ele>
        <time>2014-07-27T13:51:07Z</time>
      </trkpt>
      <trkpt lat="45.69357" lon="6.66661">
        <ele>1826</ele>
        <time>2014-07-27T13:51:14Z</time>
      </trkpt>
      <trkpt lat="45.69361" lon="6.66632">
        <ele>1824.2</ele>
        <time>2014-07-27T13:51:20Z</time>
      </trkpt>
      <trkpt lat="45.69374" lon="6.66599">
        <ele>1821</ele>
        <time>2014-07-27T13:51:27Z</time>
      </trkpt>
      <trkpt lat="45.69384" lon="6.66557">
        <ele>1819</ele>
        <time>2014-07-27T13:51:37Z</time>
      </trkpt>
      <trkpt lat="45.694" lon="6.66537">
        <ele>1818</ele>
        <time>2014-07-27T13:51:44Z</time>
      </trkpt>
      <trkpt lat="45.69413" lon="6.66526">
        <ele>1818</ele>
        <time>2014-07-27T13:51:48Z</time>
      </trkpt>
      <trkpt lat="45.69434" lon="6.66509">
        <ele>1816</ele>
        <time>2014-07-27T13:51:54Z</time>
      </trkpt>
      <trkpt lat="45.69451" lon="6.66502">
        <ele>1816</ele>
        <time>2014-07-27T13:51:58Z</time>
      </trkpt>
      <trkpt lat="45.69481" lon="6.66496">
        <ele>1810.4</ele>
        <time>2014-07-27T13:52:05Z</time>
      </trkpt>
      <trkpt lat="45.69505" lon="6.66499">
        <ele>1807</ele>
        <time>2014-07-27T13:52:16Z</time>
      </trkpt>
      <trkpt lat="45.69521" lon="6.66508">
        <ele>1807</ele>
        <time>2014-07-27T13:52:21Z</time>
      </trkpt>
      <trkpt lat="45.69544" lon="6.66522">
        <ele>1807</ele>
        <time>2014-07-27T13:52:25Z</time>
      </trkpt>
      <trkpt lat="45.69565" lon="6.66508">
        <ele>1807</ele>
        <time>2014-07-27T13:52:28Z</time>
      </trkpt>
      <trkpt lat="45.69577" lon="6.6649">
        <ele>1803.9</ele>
        <time>2014-07-27T13:52:30Z</time>
      </trkpt>
      <trkpt lat="45.69587" lon="6.6647">
        <ele>1802</ele>
        <time>2014-07-27T13:52:32Z</time>
      </trkpt>
      <trkpt lat="45.69607" lon="6.66428">
        <ele>1799</ele>
        <time>2014-07-27T13:52:36Z</time>
      </trkpt>
      <trkpt lat="45.69631" lon="6.66389">
        <ele>1797.8</ele>
        <time>2014-07-27T13:52:40Z</time>
      </trkpt>
      <trkpt lat="45.6964" lon="6.66369">
        <ele>1794.8</ele>
        <time>2014-07-27T13:52:42Z</time>
      </trkpt>
      <trkpt lat="45.69642" lon="6.66346">
        <ele>1792.6</ele>
        <time>2014-07-27T13:52:44Z</time>
      </trkpt>
      <trkpt lat="45.6964" lon="6.66297">
        <ele>1792</ele>
        <time>2014-07-27T13:52:48Z</time>
      </trkpt>
      <trkpt lat="45.69633" lon="6.66267">
        <ele>1790.4</ele>
        <time>2014-07-27T13:52:51Z</time>
      </trkpt>
      <trkpt lat="45.69625" lon="6.66252">
        <ele>1788.4</ele>
        <time>2014-07-27T13:52:53Z</time>
      </trkpt>
      <trkpt lat="45.69613" lon="6.66208">
        <ele>1785.6</ele>
        <time>2014-07-27T13:52:59Z</time>
      </trkpt>
      <trkpt lat="45.6959" lon="6.66142">
        <ele>1781.4</ele>
        <time>2014-07-27T13:53:07Z</time>
      </trkpt>
      <trkpt lat="45.69571" lon="6.66108">
        <ele>1778.4</ele>
        <time>2014-07-27T13:53:11Z</time>
      </trkpt>
      <trkpt lat="45.69546" lon="6.66052">
        <ele>1775</ele>
        <time>2014-07-27T13:53:17Z</time>
      </trkpt>
      <trkpt lat="45.69535" lon="6.66034">
        <ele>1772.4</ele>
        <time>2014-07-27T13:53:19Z</time>
      </trkpt>
      <trkpt lat="45.69476" lon="6.65976">
        <ele>1767.6</ele>
        <time>2014-07-27T13:53:27Z</time>
      </trkpt>
      <trkpt lat="45.69452" lon="6.65955">
        <ele>1765</ele>
        <time>2014-07-27T13:53:30Z</time>
      </trkpt>
      <trkpt lat="45.6943" lon="6.65928">
        <ele>1762</ele>
        <time>2014-07-27T13:53:33Z</time>
      </trkpt>
      <trkpt lat="45.69407" lon="6.65895">
        <ele>1759.4</ele>
        <time>2014-07-27T13:53:36Z</time>
      </trkpt>
      <trkpt lat="45.6939" lon="6.65872">
        <ele>1757.4</ele>
        <time>2014-07-27T13:53:38Z</time>
      </trkpt>
      <trkpt lat="45.6936" lon="6.65822">
        <ele>1753.4</ele>
        <time>2014-07-27T13:53:42Z</time>
      </trkpt>
      <trkpt lat="45.69345" lon="6.658">
        <ele>1751.4</ele>
        <time>2014-07-27T13:53:44Z</time>
      </trkpt>
      <trkpt lat="45.69322" lon="6.65771">
        <ele>1749</ele>
        <time>2014-07-27T13:53:47Z</time>
      </trkpt>
      <trkpt lat="45.69304" lon="6.65733">
        <ele>1745.8</ele>
        <time>2014-07-27T13:53:50Z</time>
      </trkpt>
      <trkpt lat="45.69282" lon="6.65696">
        <ele>1742.4</ele>
        <time>2014-07-27T13:53:53Z</time>
      </trkpt>
      <trkpt lat="45.69261" lon="6.65658">
        <ele>1739.4</ele>
        <time>2014-07-27T13:53:56Z</time>
      </trkpt>
      <trkpt lat="45.6923" lon="6.65606">
        <ele>1735.8</ele>
        <time>2014-07-27T13:54:00Z</time>
      </trkpt>
      <trkpt lat="45.69205" lon="6.65547">
        <ele>1730.4</ele>
        <time>2014-07-27T13:54:04Z</time>
      </trkpt>
      <trkpt lat="45.69183" lon="6.65484">
        <ele>1727</ele>
        <time>2014-07-27T13:54:08Z</time>
      </trkpt>
      <trkpt lat="45.6917" lon="6.65455">
        <ele>1724.4</ele>
        <time>2014-07-27T13:54:10Z</time>
      </trkpt>
      <trkpt lat="45.69137" lon="6.65403">
        <ele>1720.4</ele>
        <time>2014-07-27T13:54:14Z</time>
      </trkpt>
      <trkpt lat="45.69111" lon="6.65368">
        <ele>1713.8</ele>
        <time>2014-07-27T13:54:18Z</time>
      </trkpt>
      <trkpt lat="45.69117" lon="6.65356">
        <ele>1712</ele>
        <time>2014-07-27T13:54:21Z</time>
      </trkpt>
      <trkpt lat="45.69139" lon="6.65385">
        <ele>1711</ele>
        <time>2014-07-27T13:54:25Z</time>
      </trkpt>
      <trkpt lat="45.69162" lon="6.65414">
        <ele>1709.4</ele>
        <time>2014-07-27T13:54:29Z</time>
      </trkpt>
      <trkpt lat="45.69201" lon="6.65457">
        <ele>1708.4</ele>
        <time>2014-07-27T13:54:35Z</time>
      </trkpt>
      <trkpt lat="45.69214" lon="6.65475">
        <ele>1708</ele>
        <time>2014-07-27T13:54:37Z</time>
      </trkpt>
      <trkpt lat="45.69244" lon="6.65524">
        <ele>1701</ele>
        <time>2014-07-27T13:54:42Z</time>
      </trkpt>
      <trkpt lat="45.6927" lon="6.6556">
        <ele>1700</ele>
        <time>2014-07-27T13:54:46Z</time>
      </trkpt>
      <trkpt lat="45.69286" lon="6.65576">
        <ele>1699</ele>
        <time>2014-07-27T13:54:48Z</time>
      </trkpt>
      <trkpt lat="45.69312" lon="6.656">
        <ele>1697</ele>
        <time>2014-07-27T13:54:51Z</time>
      </trkpt>
      <trkpt lat="45.69338" lon="6.65625">
        <ele>1694</ele>
        <time>2014-07-27T13:54:54Z</time>
      </trkpt>
      <trkpt lat="45.69361" lon="6.65655">
        <ele>1691.8</ele>
        <time>2014-07-27T13:54:57Z</time>
      </trkpt>
      <trkpt lat="45.69385" lon="6.65682">
        <ele>1687.2</ele>
        <time>2014-07-27T13:55:00Z</time>
      </trkpt>
      <trkpt lat="45.69398" lon="6.65701">
        <ele>1685.4</ele>
        <time>2014-07-27T13:55:02Z</time>
      </trkpt>
      <trkpt lat="45.69408" lon="6.65724">
        <ele>1684.4</ele>
        <time>2014-07-27T13:55:04Z</time>
      </trkpt>
      <trkpt lat="45.69423" lon="6.65763">
        <ele>1681.4</ele>
        <time>2014-07-27T13:55:08Z</time>
      </trkpt>
      <trkpt lat="45.69471" lon="6.6578">
        <ele>1677.4</ele>
        <time>2014-07-27T13:55:14Z</time>
      </trkpt>
      <trkpt lat="45.69512" lon="6.65787">
        <ele>1674.4</ele>
        <time>2014-07-27T13:55:18Z</time>
      </trkpt>
      <trkpt lat="45.69544" lon="6.65795">
        <ele>1671.8</ele>
        <time>2014-07-27T13:55:21Z</time>
      </trkpt>
      <trkpt lat="45.69562" lon="6.65799">
        <ele>1668.4</ele>
        <time>2014-07-27T13:55:23Z</time>
      </trkpt>
      <trkpt lat="45.69579" lon="6.65794">
        <ele>1666.4</ele>
        <time>2014-07-27T13:55:25Z</time>
      </trkpt>
      <trkpt lat="45.69591" lon="6.65778">
        <ele>1665</ele>
        <time>2014-07-27T13:55:27Z</time>
      </trkpt>
      <trkpt lat="45.696" lon="6.65758">
        <ele>1664</ele>
        <time>2014-07-27T13:55:29Z</time>
      </trkpt>
      <trkpt lat="45.69604" lon="6.65733">
        <ele>1664</ele>
        <time>2014-07-27T13:55:31Z</time>
      </trkpt>
      <trkpt lat="45.696" lon="6.65708">
        <ele>1663</ele>
        <time>2014-07-27T13:55:33Z</time>
      </trkpt>
      <trkpt lat="45.69588" lon="6.65687">
        <ele>1660.8</ele>
        <time>2014-07-27T13:55:35Z</time>
      </trkpt>
      <trkpt lat="45.69572" lon="6.65674">
        <ele>1660</ele>
        <time>2014-07-27T13:55:37Z</time>
      </trkpt>
      <trkpt lat="45.69553" lon="6.6567">
        <ele>1659.4</ele>
        <time>2014-07-27T13:55:39Z</time>
      </trkpt>
      <trkpt lat="45.69495" lon="6.65677">
        <ele>1657.8</ele>
        <time>2014-07-27T13:55:45Z</time>
      </trkpt>
      <trkpt lat="45.69475" lon="6.65672">
        <ele>1657</ele>
        <time>2014-07-27T13:55:47Z</time>
      </trkpt>
      <trkpt lat="45.69459" lon="6.65657">
        <ele>1657</ele>
        <time>2014-07-27T13:55:49Z</time>
      </trkpt>
      <trkpt lat="45.69448" lon="6.65635">
        <ele>1654</ele>
        <time>2014-07-27T13:55:51Z</time>
      </trkpt>
      <trkpt lat="45.69444" lon="6.65608">
        <ele>1654</ele>
        <time>2014-07-27T13:55:53Z</time>
      </trkpt>
      <trkpt lat="45.69448" lon="6.65579">
        <ele>1652.2</ele>
        <time>2014-07-27T13:55:55Z</time>
      </trkpt>
      <trkpt lat="45.69453" lon="6.65566">
        <ele>1651</ele>
        <time>2014-07-27T13:55:56Z</time>
      </trkpt>
      <trkpt lat="45.69467" lon="6.65546">
        <ele>1651</ele>
        <time>2014-07-27T13:55:58Z</time>
      </trkpt>
      <trkpt lat="45.69486" lon="6.65538">
        <ele>1647.3</ele>
        <time>2014-07-27T13:56:00Z</time>
      </trkpt>
      <trkpt lat="45.69517" lon="6.6555">
        <ele>1645</ele>
        <time>2014-07-27T13:56:03Z</time>
      </trkpt>
      <trkpt lat="45.69558" lon="6.65566">
        <ele>1642.4</ele>
        <time>2014-07-27T13:56:07Z</time>
      </trkpt>
      <trkpt lat="45.6959" lon="6.65577">
        <ele>1639.4</ele>
        <time>2014-07-27T13:56:10Z</time>
      </trkpt>
      <trkpt lat="45.69622" lon="6.65592">
        <ele>1637.8</ele>
        <time>2014-07-27T13:56:13Z</time>
      </trkpt>
      <trkpt lat="45.69668" lon="6.65612">
        <ele>1632.4</ele>
        <time>2014-07-27T13:56:17Z</time>
      </trkpt>
      <trkpt lat="45.69717" lon="6.65634">
        <ele>1628.4</ele>
        <time>2014-07-27T13:56:21Z</time>
      </trkpt>
      <trkpt lat="45.69741" lon="6.65641">
        <ele>1625.8</ele>
        <time>2014-07-27T13:56:23Z</time>
      </trkpt>
      <trkpt lat="45.69765" lon="6.65642">
        <ele>1624</ele>
        <time>2014-07-27T13:56:25Z</time>
      </trkpt>
      <trkpt lat="45.69787" lon="6.65637">
        <ele>1621.4</ele>
        <time>2014-07-27T13:56:27Z</time>
      </trkpt>
      <trkpt lat="45.69817" lon="6.6562">
        <ele>1618.4</ele>
        <time>2014-07-27T13:56:30Z</time>
      </trkpt>
      <trkpt lat="45.69834" lon="6.65603">
        <ele>1617.4</ele>
        <time>2014-07-27T13:56:32Z</time>
      </trkpt>
      <trkpt lat="45.69866" lon="6.6556">
        <ele>1616.4</ele>
        <time>2014-07-27T13:56:36Z</time>
      </trkpt>
      <trkpt lat="45.69893" lon="6.65537">
        <ele>1613.4</ele>
        <time>2014-07-27T13:56:39Z</time>
      </trkpt>
      <trkpt lat="45.69931" lon="6.65526">
        <ele>1613</ele>
        <time>2014-07-27T13:56:43Z</time>
      </trkpt>
      <trkpt lat="45.69949" lon="6.65517">
        <ele>1613</ele>
        <time>2014-07-27T13:56:45Z</time>
      </trkpt>
      <trkpt lat="45.69963" lon="6.65502">
        <ele>1613</ele>
        <time>2014-07-27T13:56:47Z</time>
      </trkpt>
      <trkpt lat="45.69972" lon="6.6548">
        <ele>1613</ele>
        <time>2014-07-27T13:56:49Z</time>
      </trkpt>
      <trkpt lat="45.69991" lon="6.65407">
        <ele>1613</ele>
        <time>2014-07-27T13:56:55Z</time>
      </trkpt>
      <trkpt lat="45.70001" lon="6.65386">
        <ele>1613</ele>
        <time>2014-07-27T13:56:57Z</time>
      </trkpt>
      <trkpt lat="45.70023" lon="6.65347">
        <ele>1613</ele>
        <time>2014-07-27T13:57:01Z</time>
      </trkpt>
      <trkpt lat="45.70032" lon="6.65327">
        <ele>1613</ele>
        <time>2014-07-27T13:57:03Z</time>
      </trkpt>
      <trkpt lat="45.7004" lon="6.65289">
        <ele>1613</ele>
        <time>2014-07-27T13:57:07Z</time>
      </trkpt>
      <trkpt lat="45.70038" lon="6.65254">
        <ele>1613</ele>
        <time>2014-07-27T13:57:11Z</time>
      </trkpt>
      <trkpt lat="45.70032" lon="6.65215">
        <ele>1613</ele>
        <time>2014-07-27T13:57:16Z</time>
      </trkpt>
      <trkpt lat="45.7003" lon="6.65187">
        <ele>1614.2</ele>
        <time>2014-07-27T13:57:20Z</time>
      </trkpt>
      <trkpt lat="45.70032" lon="6.65124">
        <ele>1617</ele>
        <time>2014-07-27T13:57:31Z</time>
      </trkpt>
      <trkpt lat="45.70025" lon="6.65086">
        <ele>1617</ele>
        <time>2014-07-27T13:57:37Z</time>
      </trkpt>
      <trkpt lat="45.70024" lon="6.65054">
        <ele>1619</ele>
        <time>2014-07-27T13:57:42Z</time>
      </trkpt>
      <trkpt lat="45.7003" lon="6.65027">
        <ele>1619</ele>
        <time>2014-07-27T13:57:46Z</time>
      </trkpt>
      <trkpt lat="45.70048" lon="6.65002">
        <ele>1623</ele>
        <time>2014-07-27T13:57:52Z</time>
      </trkpt>
      <trkpt lat="45.70077" lon="6.64982">
        <ele>1624</ele>
        <time>2014-07-27T13:57:58Z</time>
      </trkpt>
      <trkpt lat="45.70093" lon="6.64962">
        <ele>1624</ele>
        <time>2014-07-27T13:58:02Z</time>
      </trkpt>
      <trkpt lat="45.70105" lon="6.64936">
        <ele>1624</ele>
        <time>2014-07-27T13:58:06Z</time>
      </trkpt>
      <trkpt lat="45.70112" lon="6.64905">
        <ele>1625.1</ele>
        <time>2014-07-27T13:58:10Z</time>
      </trkpt>
      <trkpt lat="45.70108" lon="6.64859">
        <ele>1626</ele>
        <time>2014-07-27T13:58:16Z</time>
      </trkpt>
      <trkpt lat="45.70099" lon="6.64835">
        <ele>1627.2</ele>
        <time>2014-07-27T13:58:20Z</time>
      </trkpt>
      <trkpt lat="45.70079" lon="6.64805">
        <ele>1628</ele>
        <time>2014-07-27T13:58:26Z</time>
      </trkpt>
      <trkpt lat="45.7005" lon="6.64767">
        <ele>1631</ele>
        <time>2014-07-27T13:58:34Z</time>
      </trkpt>
      <trkpt lat="45.70041" lon="6.6475">
        <ele>1632</ele>
        <time>2014-07-27T13:58:37Z</time>
      </trkpt>
      <trkpt lat="45.70028" lon="6.64719">
        <ele>1633</ele>
        <time>2014-07-27T13:58:42Z</time>
      </trkpt>
      <trkpt lat="45.70013" lon="6.64681">
        <ele>1633</ele>
        <time>2014-07-27T13:58:48Z</time>
      </trkpt>
      <trkpt lat="45.69992" lon="6.64629">
        <ele>1634</ele>
        <time>2014-07-27T13:58:56Z</time>
      </trkpt>
      <trkpt lat="45.69979" lon="6.6459">
        <ele>1635</ele>
        <time>2014-07-27T13:59:02Z</time>
      </trkpt>
      <trkpt lat="45.69981" lon="6.64562">
        <ele>1635</ele>
        <time>2014-07-27T13:59:06Z</time>
      </trkpt>
      <trkpt lat="45.69994" lon="6.64539">
        <ele>1635.6</ele>
        <time>2014-07-27T13:59:10Z</time>
      </trkpt>
      <trkpt lat="45.70003" lon="6.64531">
        <ele>1636</ele>
        <time>2014-07-27T13:59:12Z</time>
      </trkpt>
      <trkpt lat="45.70029" lon="6.64511">
        <ele>1636</ele>
        <time>2014-07-27T13:59:17Z</time>
      </trkpt>
      <trkpt lat="45.70051" lon="6.64493">
        <ele>1636</ele>
        <time>2014-07-27T13:59:21Z</time>
      </trkpt>
      <trkpt lat="45.70069" lon="6.64463">
        <ele>1636</ele>
        <time>2014-07-27T13:59:25Z</time>
      </trkpt>
      <trkpt lat="45.70076" lon="6.64434">
        <ele>1636</ele>
        <time>2014-07-27T13:59:28Z</time>
      </trkpt>
      <trkpt lat="45.70075" lon="6.64393">
        <ele>1633</ele>
        <time>2014-07-27T13:59:32Z</time>
      </trkpt>
      <trkpt lat="45.7007" lon="6.64374">
        <ele>1633</ele>
        <time>2014-07-27T13:59:34Z</time>
      </trkpt>
      <trkpt lat="45.70052" lon="6.64336">
        <ele>1633</ele>
        <time>2014-07-27T13:59:38Z</time>
      </trkpt>
      <trkpt lat="45.70042" lon="6.64302">
        <ele>1634</ele>
        <time>2014-07-27T13:59:41Z</time>
      </trkpt>
      <trkpt lat="45.70036" lon="6.64265">
        <ele>1634</ele>
        <time>2014-07-27T13:59:44Z</time>
      </trkpt>
      <trkpt lat="45.70031" lon="6.64241">
        <ele>1634</ele>
        <time>2014-07-27T13:59:46Z</time>
      </trkpt>
      <trkpt lat="45.70016" lon="6.64195">
        <ele>1634</ele>
        <time>2014-07-27T13:59:50Z</time>
      </trkpt>
      <trkpt lat="45.69999" lon="6.64149">
        <ele>1634</ele>
        <time>2014-07-27T13:59:54Z</time>
      </trkpt>
      <trkpt lat="45.6998" lon="6.64102">
        <ele>1634</ele>
        <time>2014-07-27T13:59:58Z</time>
      </trkpt>
      <trkpt lat="45.69944" lon="6.64037">
        <ele>1632</ele>
        <time>2014-07-27T14:00:04Z</time>
      </trkpt>
      <trkpt lat="45.69909" lon="6.63982">
        <ele>1632.6</ele>
        <time>2014-07-27T14:00:10Z</time>
      </trkpt>
      <trkpt lat="45.69873" lon="6.63937">
        <ele>1633</ele>
        <time>2014-07-27T14:00:16Z</time>
      </trkpt>
      <trkpt lat="45.69826" lon="6.63873">
        <ele>1632</ele>
        <time>2014-07-27T14:00:24Z</time>
      </trkpt>
      <trkpt lat="45.69783" lon="6.63829">
        <ele>1630.8</ele>
        <time>2014-07-27T14:00:30Z</time>
      </trkpt>
      <trkpt lat="45.69715" lon="6.63785">
        <ele>1629</ele>
        <time>2014-07-27T14:00:38Z</time>
      </trkpt>
      <trkpt lat="45.697" lon="6.63771">
        <ele>1628.4</ele>
        <time>2014-07-27T14:00:40Z</time>
      </trkpt>
      <trkpt lat="45.69674" lon="6.63735">
        <ele>1628</ele>
        <time>2014-07-27T14:00:44Z</time>
      </trkpt>
      <trkpt lat="45.69649" lon="6.63683">
        <ele>1628</ele>
        <time>2014-07-27T14:00:49Z</time>
      </trkpt>
      <trkpt lat="45.69637" lon="6.63664">
        <ele>1627</ele>
        <time>2014-07-27T14:00:51Z</time>
      </trkpt>
      <trkpt lat="45.69623" lon="6.63648">
        <ele>1627</ele>
        <time>2014-07-27T14:00:53Z</time>
      </trkpt>
      <trkpt lat="45.69586" lon="6.63614">
        <ele>1627</ele>
        <time>2014-07-27T14:00:58Z</time>
      </trkpt>
      <trkpt lat="45.69575" lon="6.63597">
        <ele>1626.4</ele>
        <time>2014-07-27T14:01:00Z</time>
      </trkpt>
      <trkpt lat="45.69537" lon="6.63535">
        <ele>1626</ele>
        <time>2014-07-27T14:01:08Z</time>
      </trkpt>
      <trkpt lat="45.6952" lon="6.635">
        <ele>1629</ele>
        <time>2014-07-27T14:01:13Z</time>
      </trkpt>
      <trkpt lat="45.69504" lon="6.63461">
        <ele>1631</ele>
        <time>2014-07-27T14:01:19Z</time>
      </trkpt>
      <trkpt lat="45.69495" lon="6.63421">
        <ele>1631</ele>
        <time>2014-07-27T14:01:25Z</time>
      </trkpt>
      <trkpt lat="45.69489" lon="6.63389">
        <ele>1631</ele>
        <time>2014-07-27T14:01:29Z</time>
      </trkpt>
      <trkpt lat="45.69484" lon="6.63374">
        <ele>1631</ele>
        <time>2014-07-27T14:01:31Z</time>
      </trkpt>
      <trkpt lat="45.69466" lon="6.63336">
        <ele>1631</ele>
        <time>2014-07-27T14:01:37Z</time>
      </trkpt>
      <trkpt lat="45.69459" lon="6.63324">
        <ele>1626</ele>
        <time>2014-07-27T14:01:48Z</time>
      </trkpt>
    </trkseg>
  </trk>
</gpx>